<?xml version="1.0" encoding="UTF-8" standalone="no" ?>
<gpx xmlns="http://www.topografix.com/GPX/1/1" xmlns:xsi="http://www.w3.org/2001/XMLSchema-instance" xsi:schemaLocation="http://www.topografix.com/GPX/1/1 http://www.topografix.com/GPX/1/1/gpx.xsd" version="1.1" creator="VisuGPX - https://www.visugpx.com">
  <metadata>
    <name>marche nordique tour de Tosny</name>
    <desc><![CDATA[randonnée/marche nordique depuis les Andelys et le tour de Tosny]]></desc>
  </metadata>
  <wpt lat="49.2368" lon="1.40063">
    <ele>-47</ele>
  </wpt>
  <wpt lat="49.23799" lon="1.40105">
    <ele>7</ele>
  </wpt>
  <trk>
    <name><![CDATA[marche nordique tour de Tosny_1]]></name>
    <trkseg>
      <trkpt lat="49.2368" lon="1.40063">
        <ele>-47</ele>
        <time>2011-10-23T08:04:58Z</time>
      </trkpt>
      <trkpt lat="49.23668" lon="1.40054">
        <ele>-47</ele>
        <time>2011-10-23T08:05:06Z</time>
      </trkpt>
      <trkpt lat="49.23678" lon="1.40059">
        <ele>-47</ele>
        <time>2011-10-23T08:05:16Z</time>
      </trkpt>
      <trkpt lat="49.23661" lon="1.40048">
        <ele>-47</ele>
        <time>2011-10-23T08:05:35Z</time>
      </trkpt>
      <trkpt lat="49.23671" lon="1.40059">
        <ele>-47</ele>
        <time>2011-10-23T08:05:43Z</time>
      </trkpt>
      <trkpt lat="49.23789" lon="1.401">
        <ele>10</ele>
        <time>2011-10-23T08:05:57Z</time>
      </trkpt>
      <trkpt lat="49.23781" lon="1.40096">
        <ele>10</ele>
        <time>2011-10-23T08:06:50Z</time>
      </trkpt>
      <trkpt lat="49.23789" lon="1.40091">
        <ele>21</ele>
        <time>2011-10-23T08:07:00Z</time>
      </trkpt>
      <trkpt lat="49.23798" lon="1.40095">
        <ele>21</ele>
        <time>2011-10-23T08:07:55Z</time>
      </trkpt>
      <trkpt lat="49.23791" lon="1.40105">
        <ele>27</ele>
        <time>2011-10-23T08:09:14Z</time>
      </trkpt>
      <trkpt lat="49.23782" lon="1.4011">
        <ele>27</ele>
        <time>2011-10-23T08:09:22Z</time>
      </trkpt>
      <trkpt lat="49.23772" lon="1.40117">
        <ele>21</ele>
        <time>2011-10-23T08:09:32Z</time>
      </trkpt>
      <trkpt lat="49.23762" lon="1.40119">
        <ele>21</ele>
        <time>2011-10-23T08:09:38Z</time>
      </trkpt>
      <trkpt lat="49.23754" lon="1.40126">
        <ele>21</ele>
        <time>2011-10-23T08:09:45Z</time>
      </trkpt>
      <trkpt lat="49.23744" lon="1.40131">
        <ele>21</ele>
        <time>2011-10-23T08:09:53Z</time>
      </trkpt>
      <trkpt lat="49.23734" lon="1.40134">
        <ele>21</ele>
        <time>2011-10-23T08:10:01Z</time>
      </trkpt>
      <trkpt lat="49.23725" lon="1.4013">
        <ele>21</ele>
        <time>2011-10-23T08:10:21Z</time>
      </trkpt>
      <trkpt lat="49.23717" lon="1.40122">
        <ele>21</ele>
        <time>2011-10-23T08:10:25Z</time>
      </trkpt>
      <trkpt lat="49.23708" lon="1.40118">
        <ele>21</ele>
        <time>2011-10-23T08:10:28Z</time>
      </trkpt>
      <trkpt lat="49.23702" lon="1.40104">
        <ele>27</ele>
        <time>2011-10-23T08:10:41Z</time>
      </trkpt>
      <trkpt lat="49.23694" lon="1.40099">
        <ele>27</ele>
        <time>2011-10-23T08:10:44Z</time>
      </trkpt>
      <trkpt lat="49.23688" lon="1.40086">
        <ele>27</ele>
        <time>2011-10-23T08:10:50Z</time>
      </trkpt>
      <trkpt lat="49.23684" lon="1.40072">
        <ele>27</ele>
        <time>2011-10-23T08:10:57Z</time>
      </trkpt>
      <trkpt lat="49.23684" lon="1.40057">
        <ele>27</ele>
        <time>2011-10-23T08:11:03Z</time>
      </trkpt>
      <trkpt lat="49.23682" lon="1.40042">
        <ele>27</ele>
        <time>2011-10-23T08:11:11Z</time>
      </trkpt>
      <trkpt lat="49.23679" lon="1.40029">
        <ele>27</ele>
        <time>2011-10-23T08:11:18Z</time>
      </trkpt>
      <trkpt lat="49.23678" lon="1.40013">
        <ele>27</ele>
        <time>2011-10-23T08:11:25Z</time>
      </trkpt>
      <trkpt lat="49.23678" lon="1.39998">
        <ele>27</ele>
        <time>2011-10-23T08:11:32Z</time>
      </trkpt>
      <trkpt lat="49.23675" lon="1.39984">
        <ele>27</ele>
        <time>2011-10-23T08:11:41Z</time>
      </trkpt>
      <trkpt lat="49.23672" lon="1.3997">
        <ele>27</ele>
        <time>2011-10-23T08:11:48Z</time>
      </trkpt>
      <trkpt lat="49.23669" lon="1.39956">
        <ele>27</ele>
        <time>2011-10-23T08:11:56Z</time>
      </trkpt>
      <trkpt lat="49.23667" lon="1.39941">
        <ele>27</ele>
        <time>2011-10-23T08:12:02Z</time>
      </trkpt>
      <trkpt lat="49.23665" lon="1.39926">
        <ele>27</ele>
        <time>2011-10-23T08:12:09Z</time>
      </trkpt>
      <trkpt lat="49.23663" lon="1.39913">
        <ele>27</ele>
        <time>2011-10-23T08:12:16Z</time>
      </trkpt>
      <trkpt lat="49.23661" lon="1.39897">
        <ele>27</ele>
        <time>2011-10-23T08:12:23Z</time>
      </trkpt>
      <trkpt lat="49.23657" lon="1.39884">
        <ele>27</ele>
        <time>2011-10-23T08:12:30Z</time>
      </trkpt>
      <trkpt lat="49.23654" lon="1.3987">
        <ele>27</ele>
        <time>2011-10-23T08:12:37Z</time>
      </trkpt>
      <trkpt lat="49.23653" lon="1.39855">
        <ele>27</ele>
        <time>2011-10-23T08:12:44Z</time>
      </trkpt>
      <trkpt lat="49.23651" lon="1.39841">
        <ele>27</ele>
        <time>2011-10-23T08:12:51Z</time>
      </trkpt>
      <trkpt lat="49.23649" lon="1.39826">
        <ele>27</ele>
        <time>2011-10-23T08:12:58Z</time>
      </trkpt>
      <trkpt lat="49.23649" lon="1.39811">
        <ele>27</ele>
        <time>2011-10-23T08:13:05Z</time>
      </trkpt>
      <trkpt lat="49.23648" lon="1.39795">
        <ele>27</ele>
        <time>2011-10-23T08:13:12Z</time>
      </trkpt>
      <trkpt lat="49.23644" lon="1.39781">
        <ele>27</ele>
        <time>2011-10-23T08:13:19Z</time>
      </trkpt>
      <trkpt lat="49.23642" lon="1.39766">
        <ele>27</ele>
        <time>2011-10-23T08:13:26Z</time>
      </trkpt>
      <trkpt lat="49.23641" lon="1.3975">
        <ele>27</ele>
        <time>2011-10-23T08:13:34Z</time>
      </trkpt>
      <trkpt lat="49.23639" lon="1.39735">
        <ele>22</ele>
        <time>2011-10-23T08:13:41Z</time>
      </trkpt>
      <trkpt lat="49.23637" lon="1.3972">
        <ele>22</ele>
        <time>2011-10-23T08:13:49Z</time>
      </trkpt>
      <trkpt lat="49.23635" lon="1.39706">
        <ele>22</ele>
        <time>2011-10-23T08:13:55Z</time>
      </trkpt>
      <trkpt lat="49.23632" lon="1.39693">
        <ele>22</ele>
        <time>2011-10-23T08:14:02Z</time>
      </trkpt>
      <trkpt lat="49.23627" lon="1.3968">
        <ele>22</ele>
        <time>2011-10-23T08:14:10Z</time>
      </trkpt>
      <trkpt lat="49.23619" lon="1.39668">
        <ele>22</ele>
        <time>2011-10-23T08:14:19Z</time>
      </trkpt>
      <trkpt lat="49.23611" lon="1.39661">
        <ele>22</ele>
        <time>2011-10-23T08:14:26Z</time>
      </trkpt>
      <trkpt lat="49.23603" lon="1.39653">
        <ele>22</ele>
        <time>2011-10-23T08:14:35Z</time>
      </trkpt>
      <trkpt lat="49.23594" lon="1.39658">
        <ele>15</ele>
        <time>2011-10-23T08:15:06Z</time>
      </trkpt>
      <trkpt lat="49.23593" lon="1.39672">
        <ele>15</ele>
        <time>2011-10-23T08:15:14Z</time>
      </trkpt>
      <trkpt lat="49.236" lon="1.39681">
        <ele>15</ele>
        <time>2011-10-23T08:15:22Z</time>
      </trkpt>
      <trkpt lat="49.23607" lon="1.39691">
        <ele>21</ele>
        <time>2011-10-23T08:15:31Z</time>
      </trkpt>
      <trkpt lat="49.23614" lon="1.39702">
        <ele>28</ele>
        <time>2011-10-23T08:15:41Z</time>
      </trkpt>
      <trkpt lat="49.23619" lon="1.39715">
        <ele>28</ele>
        <time>2011-10-23T08:15:49Z</time>
      </trkpt>
      <trkpt lat="49.23622" lon="1.39729">
        <ele>28</ele>
        <time>2011-10-23T08:15:55Z</time>
      </trkpt>
      <trkpt lat="49.23624" lon="1.39743">
        <ele>21</ele>
        <time>2011-10-23T08:16:01Z</time>
      </trkpt>
      <trkpt lat="49.23624" lon="1.39758">
        <ele>21</ele>
        <time>2011-10-23T08:16:08Z</time>
      </trkpt>
      <trkpt lat="49.23623" lon="1.39773">
        <ele>21</ele>
        <time>2011-10-23T08:16:15Z</time>
      </trkpt>
      <trkpt lat="49.23615" lon="1.39782">
        <ele>21</ele>
        <time>2011-10-23T08:16:23Z</time>
      </trkpt>
      <trkpt lat="49.23605" lon="1.39783">
        <ele>16</ele>
        <time>2011-10-23T08:16:33Z</time>
      </trkpt>
      <trkpt lat="49.23595" lon="1.39785">
        <ele>16</ele>
        <time>2011-10-23T08:16:43Z</time>
      </trkpt>
      <trkpt lat="49.23585" lon="1.39787">
        <ele>16</ele>
        <time>2011-10-23T08:16:52Z</time>
      </trkpt>
      <trkpt lat="49.23575" lon="1.3979">
        <ele>16</ele>
        <time>2011-10-23T08:17:00Z</time>
      </trkpt>
      <trkpt lat="49.23567" lon="1.39786">
        <ele>16</ele>
        <time>2011-10-23T08:17:10Z</time>
      </trkpt>
      <trkpt lat="49.23557" lon="1.39783">
        <ele>16</ele>
        <time>2011-10-23T08:17:19Z</time>
      </trkpt>
      <trkpt lat="49.23548" lon="1.3978">
        <ele>16</ele>
        <time>2011-10-23T08:17:26Z</time>
      </trkpt>
      <trkpt lat="49.23539" lon="1.39776">
        <ele>16</ele>
        <time>2011-10-23T08:17:33Z</time>
      </trkpt>
      <trkpt lat="49.23531" lon="1.39772">
        <ele>16</ele>
        <time>2011-10-23T08:17:42Z</time>
      </trkpt>
      <trkpt lat="49.23522" lon="1.39766">
        <ele>16</ele>
        <time>2011-10-23T08:17:50Z</time>
      </trkpt>
      <trkpt lat="49.23513" lon="1.39761">
        <ele>16</ele>
        <time>2011-10-23T08:17:57Z</time>
      </trkpt>
      <trkpt lat="49.23504" lon="1.39755">
        <ele>16</ele>
        <time>2011-10-23T08:18:05Z</time>
      </trkpt>
      <trkpt lat="49.23493" lon="1.3975">
        <ele>16</ele>
        <time>2011-10-23T08:18:12Z</time>
      </trkpt>
      <trkpt lat="49.23484" lon="1.39744">
        <ele>16</ele>
        <time>2011-10-23T08:18:19Z</time>
      </trkpt>
      <trkpt lat="49.23476" lon="1.39737">
        <ele>21</ele>
        <time>2011-10-23T08:18:27Z</time>
      </trkpt>
      <trkpt lat="49.23469" lon="1.39728">
        <ele>21</ele>
        <time>2011-10-23T08:18:34Z</time>
      </trkpt>
      <trkpt lat="49.23461" lon="1.39721">
        <ele>21</ele>
        <time>2011-10-23T08:18:40Z</time>
      </trkpt>
      <trkpt lat="49.23452" lon="1.39717">
        <ele>21</ele>
        <time>2011-10-23T08:18:45Z</time>
      </trkpt>
      <trkpt lat="49.23444" lon="1.39709">
        <ele>21</ele>
        <time>2011-10-23T08:18:51Z</time>
      </trkpt>
      <trkpt lat="49.23435" lon="1.39699">
        <ele>21</ele>
        <time>2011-10-23T08:18:58Z</time>
      </trkpt>
      <trkpt lat="49.23428" lon="1.39687">
        <ele>21</ele>
        <time>2011-10-23T08:19:07Z</time>
      </trkpt>
      <trkpt lat="49.23421" lon="1.39677">
        <ele>21</ele>
        <time>2011-10-23T08:19:16Z</time>
      </trkpt>
      <trkpt lat="49.23412" lon="1.39669">
        <ele>21</ele>
        <time>2011-10-23T08:19:23Z</time>
      </trkpt>
      <trkpt lat="49.23405" lon="1.39659">
        <ele>21</ele>
        <time>2011-10-23T08:19:32Z</time>
      </trkpt>
      <trkpt lat="49.23399" lon="1.39648">
        <ele>21</ele>
        <time>2011-10-23T08:19:40Z</time>
      </trkpt>
      <trkpt lat="49.23394" lon="1.39637">
        <ele>21</ele>
        <time>2011-10-23T08:19:47Z</time>
      </trkpt>
      <trkpt lat="49.23383" lon="1.3963">
        <ele>21</ele>
        <time>2011-10-23T08:19:54Z</time>
      </trkpt>
      <trkpt lat="49.23378" lon="1.39616">
        <ele>21</ele>
        <time>2011-10-23T08:20:01Z</time>
      </trkpt>
      <trkpt lat="49.23377" lon="1.39602">
        <ele>21</ele>
        <time>2011-10-23T08:20:08Z</time>
      </trkpt>
      <trkpt lat="49.23374" lon="1.39588">
        <ele>21</ele>
        <time>2011-10-23T08:20:17Z</time>
      </trkpt>
      <trkpt lat="49.23369" lon="1.39576">
        <ele>21</ele>
        <time>2011-10-23T08:20:26Z</time>
      </trkpt>
      <trkpt lat="49.23363" lon="1.39564">
        <ele>21</ele>
        <time>2011-10-23T08:20:33Z</time>
      </trkpt>
      <trkpt lat="49.23357" lon="1.39552">
        <ele>21</ele>
        <time>2011-10-23T08:20:39Z</time>
      </trkpt>
      <trkpt lat="49.23354" lon="1.39539">
        <ele>21</ele>
        <time>2011-10-23T08:20:46Z</time>
      </trkpt>
      <trkpt lat="49.23347" lon="1.39528">
        <ele>21</ele>
        <time>2011-10-23T08:20:55Z</time>
      </trkpt>
      <trkpt lat="49.23341" lon="1.39516">
        <ele>21</ele>
        <time>2011-10-23T08:21:03Z</time>
      </trkpt>
      <trkpt lat="49.23335" lon="1.39507">
        <ele>21</ele>
        <time>2011-10-23T08:21:11Z</time>
      </trkpt>
      <trkpt lat="49.23328" lon="1.39497">
        <ele>21</ele>
        <time>2011-10-23T08:21:22Z</time>
      </trkpt>
      <trkpt lat="49.23324" lon="1.39484">
        <ele>21</ele>
        <time>2011-10-23T08:21:50Z</time>
      </trkpt>
      <trkpt lat="49.23321" lon="1.39471">
        <ele>21</ele>
        <time>2011-10-23T08:22:01Z</time>
      </trkpt>
      <trkpt lat="49.23322" lon="1.39455">
        <ele>21</ele>
        <time>2011-10-23T08:22:09Z</time>
      </trkpt>
      <trkpt lat="49.23321" lon="1.39441">
        <ele>21</ele>
        <time>2011-10-23T08:22:16Z</time>
      </trkpt>
      <trkpt lat="49.23322" lon="1.39425">
        <ele>21</ele>
        <time>2011-10-23T08:22:24Z</time>
      </trkpt>
      <trkpt lat="49.23322" lon="1.3941">
        <ele>21</ele>
        <time>2011-10-23T08:22:33Z</time>
      </trkpt>
      <trkpt lat="49.23324" lon="1.39396">
        <ele>21</ele>
        <time>2011-10-23T08:22:39Z</time>
      </trkpt>
      <trkpt lat="49.23314" lon="1.39399">
        <ele>15</ele>
        <time>2011-10-23T08:23:06Z</time>
      </trkpt>
      <trkpt lat="49.23305" lon="1.39405">
        <ele>15</ele>
        <time>2011-10-23T08:23:14Z</time>
      </trkpt>
      <trkpt lat="49.23295" lon="1.39409">
        <ele>15</ele>
        <time>2011-10-23T08:23:22Z</time>
      </trkpt>
      <trkpt lat="49.23285" lon="1.39409">
        <ele>15</ele>
        <time>2011-10-23T08:23:32Z</time>
      </trkpt>
      <trkpt lat="49.23275" lon="1.39409">
        <ele>15</ele>
        <time>2011-10-23T08:23:40Z</time>
      </trkpt>
      <trkpt lat="49.23266" lon="1.3941">
        <ele>15</ele>
        <time>2011-10-23T08:23:48Z</time>
      </trkpt>
      <trkpt lat="49.23257" lon="1.39413">
        <ele>15</ele>
        <time>2011-10-23T08:23:55Z</time>
      </trkpt>
      <trkpt lat="49.23247" lon="1.39418">
        <ele>15</ele>
        <time>2011-10-23T08:24:02Z</time>
      </trkpt>
      <trkpt lat="49.23237" lon="1.39419">
        <ele>15</ele>
        <time>2011-10-23T08:24:09Z</time>
      </trkpt>
      <trkpt lat="49.23228" lon="1.39418">
        <ele>15</ele>
        <time>2011-10-23T08:24:19Z</time>
      </trkpt>
      <trkpt lat="49.23219" lon="1.39411">
        <ele>15</ele>
        <time>2011-10-23T08:24:26Z</time>
      </trkpt>
      <trkpt lat="49.23211" lon="1.39405">
        <ele>24</ele>
        <time>2011-10-23T08:24:36Z</time>
      </trkpt>
      <trkpt lat="49.23202" lon="1.394">
        <ele>24</ele>
        <time>2011-10-23T08:24:42Z</time>
      </trkpt>
      <trkpt lat="49.23194" lon="1.39393">
        <ele>24</ele>
        <time>2011-10-23T08:24:49Z</time>
      </trkpt>
      <trkpt lat="49.23185" lon="1.39387">
        <ele>24</ele>
        <time>2011-10-23T08:24:55Z</time>
      </trkpt>
      <trkpt lat="49.23177" lon="1.3938">
        <ele>24</ele>
        <time>2011-10-23T08:25:01Z</time>
      </trkpt>
      <trkpt lat="49.23167" lon="1.39375">
        <ele>24</ele>
        <time>2011-10-23T08:25:07Z</time>
      </trkpt>
      <trkpt lat="49.23158" lon="1.39368">
        <ele>24</ele>
        <time>2011-10-23T08:25:13Z</time>
      </trkpt>
      <trkpt lat="49.23148" lon="1.39362">
        <ele>17</ele>
        <time>2011-10-23T08:25:20Z</time>
      </trkpt>
      <trkpt lat="49.23139" lon="1.39356">
        <ele>17</ele>
        <time>2011-10-23T08:25:27Z</time>
      </trkpt>
      <trkpt lat="49.23131" lon="1.39349">
        <ele>17</ele>
        <time>2011-10-23T08:25:34Z</time>
      </trkpt>
      <trkpt lat="49.23121" lon="1.39343">
        <ele>17</ele>
        <time>2011-10-23T08:25:41Z</time>
      </trkpt>
      <trkpt lat="49.23112" lon="1.3934">
        <ele>17</ele>
        <time>2011-10-23T08:25:48Z</time>
      </trkpt>
      <trkpt lat="49.23105" lon="1.3933">
        <ele>24</ele>
        <time>2011-10-23T08:25:55Z</time>
      </trkpt>
      <trkpt lat="49.23096" lon="1.39325">
        <ele>24</ele>
        <time>2011-10-23T08:26:01Z</time>
      </trkpt>
      <trkpt lat="49.23088" lon="1.39321">
        <ele>24</ele>
        <time>2011-10-23T08:26:07Z</time>
      </trkpt>
      <trkpt lat="49.23078" lon="1.39314">
        <ele>24</ele>
        <time>2011-10-23T08:26:14Z</time>
      </trkpt>
      <trkpt lat="49.23068" lon="1.3931">
        <ele>24</ele>
        <time>2011-10-23T08:26:22Z</time>
      </trkpt>
      <trkpt lat="49.23059" lon="1.39307">
        <ele>24</ele>
        <time>2011-10-23T08:26:28Z</time>
      </trkpt>
      <trkpt lat="49.23048" lon="1.39304">
        <ele>24</ele>
        <time>2011-10-23T08:26:36Z</time>
      </trkpt>
      <trkpt lat="49.23039" lon="1.393">
        <ele>24</ele>
        <time>2011-10-23T08:26:43Z</time>
      </trkpt>
      <trkpt lat="49.23031" lon="1.39296">
        <ele>24</ele>
        <time>2011-10-23T08:26:51Z</time>
      </trkpt>
      <trkpt lat="49.23021" lon="1.39293">
        <ele>24</ele>
        <time>2011-10-23T08:27:01Z</time>
      </trkpt>
      <trkpt lat="49.23011" lon="1.39288">
        <ele>24</ele>
        <time>2011-10-23T08:27:11Z</time>
      </trkpt>
      <trkpt lat="49.23001" lon="1.39286">
        <ele>24</ele>
        <time>2011-10-23T08:27:19Z</time>
      </trkpt>
      <trkpt lat="49.22992" lon="1.39282">
        <ele>24</ele>
        <time>2011-10-23T08:27:26Z</time>
      </trkpt>
      <trkpt lat="49.22982" lon="1.39279">
        <ele>24</ele>
        <time>2011-10-23T08:27:34Z</time>
      </trkpt>
      <trkpt lat="49.22973" lon="1.39281">
        <ele>18</ele>
        <time>2011-10-23T08:27:40Z</time>
      </trkpt>
      <trkpt lat="49.22962" lon="1.39281">
        <ele>18</ele>
        <time>2011-10-23T08:27:47Z</time>
      </trkpt>
      <trkpt lat="49.22953" lon="1.39275">
        <ele>18</ele>
        <time>2011-10-23T08:27:55Z</time>
      </trkpt>
      <trkpt lat="49.22944" lon="1.39269">
        <ele>18</ele>
        <time>2011-10-23T08:28:02Z</time>
      </trkpt>
      <trkpt lat="49.22935" lon="1.39265">
        <ele>18</ele>
        <time>2011-10-23T08:28:09Z</time>
      </trkpt>
      <trkpt lat="49.22926" lon="1.3926">
        <ele>18</ele>
        <time>2011-10-23T08:28:17Z</time>
      </trkpt>
      <trkpt lat="49.22917" lon="1.39256">
        <ele>18</ele>
        <time>2011-10-23T08:28:23Z</time>
      </trkpt>
      <trkpt lat="49.22908" lon="1.39251">
        <ele>18</ele>
        <time>2011-10-23T08:28:30Z</time>
      </trkpt>
      <trkpt lat="49.22899" lon="1.39244">
        <ele>18</ele>
        <time>2011-10-23T08:28:37Z</time>
      </trkpt>
      <trkpt lat="49.22891" lon="1.39238">
        <ele>18</ele>
        <time>2011-10-23T08:28:44Z</time>
      </trkpt>
      <trkpt lat="49.22882" lon="1.39232">
        <ele>18</ele>
        <time>2011-10-23T08:28:50Z</time>
      </trkpt>
      <trkpt lat="49.22874" lon="1.39225">
        <ele>18</ele>
        <time>2011-10-23T08:28:57Z</time>
      </trkpt>
      <trkpt lat="49.22865" lon="1.39218">
        <ele>18</ele>
        <time>2011-10-23T08:29:05Z</time>
      </trkpt>
      <trkpt lat="49.22855" lon="1.39214">
        <ele>18</ele>
        <time>2011-10-23T08:29:12Z</time>
      </trkpt>
      <trkpt lat="49.22846" lon="1.3921">
        <ele>18</ele>
        <time>2011-10-23T08:29:19Z</time>
      </trkpt>
      <trkpt lat="49.22836" lon="1.39207">
        <ele>18</ele>
        <time>2011-10-23T08:29:25Z</time>
      </trkpt>
      <trkpt lat="49.22826" lon="1.39205">
        <ele>18</ele>
        <time>2011-10-23T08:29:32Z</time>
      </trkpt>
      <trkpt lat="49.22816" lon="1.39203">
        <ele>18</ele>
        <time>2011-10-23T08:29:39Z</time>
      </trkpt>
      <trkpt lat="49.22808" lon="1.39198">
        <ele>18</ele>
        <time>2011-10-23T08:29:46Z</time>
      </trkpt>
      <trkpt lat="49.22798" lon="1.3919">
        <ele>18</ele>
        <time>2011-10-23T08:29:55Z</time>
      </trkpt>
      <trkpt lat="49.22791" lon="1.39181">
        <ele>18</ele>
        <time>2011-10-23T08:30:03Z</time>
      </trkpt>
      <trkpt lat="49.22781" lon="1.39172">
        <ele>18</ele>
        <time>2011-10-23T08:30:11Z</time>
      </trkpt>
      <trkpt lat="49.22773" lon="1.39164">
        <ele>18</ele>
        <time>2011-10-23T08:30:18Z</time>
      </trkpt>
      <trkpt lat="49.22764" lon="1.39159">
        <ele>18</ele>
        <time>2011-10-23T08:30:25Z</time>
      </trkpt>
      <trkpt lat="49.22756" lon="1.39152">
        <ele>18</ele>
        <time>2011-10-23T08:30:31Z</time>
      </trkpt>
      <trkpt lat="49.22749" lon="1.39142">
        <ele>18</ele>
        <time>2011-10-23T08:30:38Z</time>
      </trkpt>
      <trkpt lat="49.22742" lon="1.39132">
        <ele>18</ele>
        <time>2011-10-23T08:30:45Z</time>
      </trkpt>
      <trkpt lat="49.22737" lon="1.39119">
        <ele>18</ele>
        <time>2011-10-23T08:30:53Z</time>
      </trkpt>
      <trkpt lat="49.22732" lon="1.39106">
        <ele>18</ele>
        <time>2011-10-23T08:31:01Z</time>
      </trkpt>
      <trkpt lat="49.22725" lon="1.39096">
        <ele>18</ele>
        <time>2011-10-23T08:31:09Z</time>
      </trkpt>
      <trkpt lat="49.22719" lon="1.39085">
        <ele>18</ele>
        <time>2011-10-23T08:31:17Z</time>
      </trkpt>
      <trkpt lat="49.22712" lon="1.39076">
        <ele>18</ele>
        <time>2011-10-23T08:31:28Z</time>
      </trkpt>
      <trkpt lat="49.22705" lon="1.39066">
        <ele>28</ele>
        <time>2011-10-23T08:31:37Z</time>
      </trkpt>
      <trkpt lat="49.22696" lon="1.39061">
        <ele>34</ele>
        <time>2011-10-23T08:31:44Z</time>
      </trkpt>
      <trkpt lat="49.2269" lon="1.3905">
        <ele>34</ele>
        <time>2011-10-23T08:31:53Z</time>
      </trkpt>
      <trkpt lat="49.22681" lon="1.39043">
        <ele>34</ele>
        <time>2011-10-23T08:31:59Z</time>
      </trkpt>
      <trkpt lat="49.22673" lon="1.39034">
        <ele>34</ele>
        <time>2011-10-23T08:32:06Z</time>
      </trkpt>
      <trkpt lat="49.22666" lon="1.39023">
        <ele>40</ele>
        <time>2011-10-23T08:32:13Z</time>
      </trkpt>
      <trkpt lat="49.22658" lon="1.39015">
        <ele>40</ele>
        <time>2011-10-23T08:32:19Z</time>
      </trkpt>
      <trkpt lat="49.22649" lon="1.3901">
        <ele>40</ele>
        <time>2011-10-23T08:32:24Z</time>
      </trkpt>
      <trkpt lat="49.22642" lon="1.39001">
        <ele>33</ele>
        <time>2011-10-23T08:32:30Z</time>
      </trkpt>
      <trkpt lat="49.22633" lon="1.38994">
        <ele>33</ele>
        <time>2011-10-23T08:32:36Z</time>
      </trkpt>
      <trkpt lat="49.22625" lon="1.38988">
        <ele>28</ele>
        <time>2011-10-23T08:32:42Z</time>
      </trkpt>
      <trkpt lat="49.22616" lon="1.3898">
        <ele>28</ele>
        <time>2011-10-23T08:32:49Z</time>
      </trkpt>
      <trkpt lat="49.22607" lon="1.38975">
        <ele>28</ele>
        <time>2011-10-23T08:32:56Z</time>
      </trkpt>
      <trkpt lat="49.22598" lon="1.3897">
        <ele>23</ele>
        <time>2011-10-23T08:33:03Z</time>
      </trkpt>
      <trkpt lat="49.2259" lon="1.38962">
        <ele>23</ele>
        <time>2011-10-23T08:33:11Z</time>
      </trkpt>
      <trkpt lat="49.22581" lon="1.38955">
        <ele>23</ele>
        <time>2011-10-23T08:33:20Z</time>
      </trkpt>
      <trkpt lat="49.22571" lon="1.38955">
        <ele>23</ele>
        <time>2011-10-23T08:33:27Z</time>
      </trkpt>
      <trkpt lat="49.22561" lon="1.3896">
        <ele>23</ele>
        <time>2011-10-23T08:33:34Z</time>
      </trkpt>
      <trkpt lat="49.22557" lon="1.38974">
        <ele>23</ele>
        <time>2011-10-23T08:33:40Z</time>
      </trkpt>
      <trkpt lat="49.22553" lon="1.38987">
        <ele>23</ele>
        <time>2011-10-23T08:33:50Z</time>
      </trkpt>
      <trkpt lat="49.22549" lon="1.39001">
        <ele>23</ele>
        <time>2011-10-23T08:33:58Z</time>
      </trkpt>
      <trkpt lat="49.22546" lon="1.39014">
        <ele>23</ele>
        <time>2011-10-23T08:34:16Z</time>
      </trkpt>
      <trkpt lat="49.22541" lon="1.39029">
        <ele>23</ele>
        <time>2011-10-23T08:34:23Z</time>
      </trkpt>
      <trkpt lat="49.22535" lon="1.3904">
        <ele>23</ele>
        <time>2011-10-23T08:34:29Z</time>
      </trkpt>
      <trkpt lat="49.22529" lon="1.3905">
        <ele>23</ele>
        <time>2011-10-23T08:34:35Z</time>
      </trkpt>
      <trkpt lat="49.2252" lon="1.39057">
        <ele>23</ele>
        <time>2011-10-23T08:34:43Z</time>
      </trkpt>
      <trkpt lat="49.22512" lon="1.3905">
        <ele>23</ele>
        <time>2011-10-23T08:34:51Z</time>
      </trkpt>
      <trkpt lat="49.22506" lon="1.39038">
        <ele>17</ele>
        <time>2011-10-23T08:34:58Z</time>
      </trkpt>
      <trkpt lat="49.22501" lon="1.39026">
        <ele>17</ele>
        <time>2011-10-23T08:35:05Z</time>
      </trkpt>
      <trkpt lat="49.22495" lon="1.39014">
        <ele>24</ele>
        <time>2011-10-23T08:35:16Z</time>
      </trkpt>
      <trkpt lat="49.22486" lon="1.39008">
        <ele>24</ele>
        <time>2011-10-23T08:35:27Z</time>
      </trkpt>
      <trkpt lat="49.22478" lon="1.39004">
        <ele>24</ele>
        <time>2011-10-23T08:35:37Z</time>
      </trkpt>
      <trkpt lat="49.22469" lon="1.39">
        <ele>24</ele>
        <time>2011-10-23T08:36:00Z</time>
      </trkpt>
      <trkpt lat="49.2246" lon="1.38995">
        <ele>24</ele>
        <time>2011-10-23T08:36:44Z</time>
      </trkpt>
      <trkpt lat="49.22452" lon="1.38988">
        <ele>24</ele>
        <time>2011-10-23T08:37:02Z</time>
      </trkpt>
      <trkpt lat="49.22445" lon="1.38978">
        <ele>24</ele>
        <time>2011-10-23T08:37:28Z</time>
      </trkpt>
      <trkpt lat="49.22436" lon="1.38973">
        <ele>24</ele>
        <time>2011-10-23T08:37:36Z</time>
      </trkpt>
      <trkpt lat="49.22426" lon="1.38968">
        <ele>24</ele>
        <time>2011-10-23T08:37:42Z</time>
      </trkpt>
      <trkpt lat="49.22419" lon="1.38957">
        <ele>24</ele>
        <time>2011-10-23T08:37:50Z</time>
      </trkpt>
      <trkpt lat="49.22413" lon="1.38947">
        <ele>24</ele>
        <time>2011-10-23T08:37:57Z</time>
      </trkpt>
      <trkpt lat="49.22405" lon="1.38937">
        <ele>24</ele>
        <time>2011-10-23T08:38:04Z</time>
      </trkpt>
      <trkpt lat="49.224" lon="1.38925">
        <ele>24</ele>
        <time>2011-10-23T08:38:11Z</time>
      </trkpt>
      <trkpt lat="49.22398" lon="1.38911">
        <ele>29</ele>
        <time>2011-10-23T08:38:17Z</time>
      </trkpt>
      <trkpt lat="49.22389" lon="1.38902">
        <ele>24</ele>
        <time>2011-10-23T08:38:22Z</time>
      </trkpt>
      <trkpt lat="49.22381" lon="1.38895">
        <ele>24</ele>
        <time>2011-10-23T08:38:29Z</time>
      </trkpt>
      <trkpt lat="49.22376" lon="1.38882">
        <ele>24</ele>
        <time>2011-10-23T08:38:35Z</time>
      </trkpt>
      <trkpt lat="49.22369" lon="1.38871">
        <ele>24</ele>
        <time>2011-10-23T08:38:40Z</time>
      </trkpt>
      <trkpt lat="49.22367" lon="1.38855">
        <ele>16</ele>
        <time>2011-10-23T08:38:46Z</time>
      </trkpt>
      <trkpt lat="49.22366" lon="1.38839">
        <ele>16</ele>
        <time>2011-10-23T08:38:54Z</time>
      </trkpt>
      <trkpt lat="49.2237" lon="1.38824">
        <ele>16</ele>
        <time>2011-10-23T08:39:00Z</time>
      </trkpt>
      <trkpt lat="49.22375" lon="1.3881">
        <ele>16</ele>
        <time>2011-10-23T08:39:06Z</time>
      </trkpt>
      <trkpt lat="49.22381" lon="1.38799">
        <ele>16</ele>
        <time>2011-10-23T08:39:12Z</time>
      </trkpt>
      <trkpt lat="49.22387" lon="1.38787">
        <ele>16</ele>
        <time>2011-10-23T08:39:18Z</time>
      </trkpt>
      <trkpt lat="49.22391" lon="1.38774">
        <ele>16</ele>
        <time>2011-10-23T08:39:25Z</time>
      </trkpt>
      <trkpt lat="49.22388" lon="1.38759">
        <ele>16</ele>
        <time>2011-10-23T08:39:33Z</time>
      </trkpt>
      <trkpt lat="49.22385" lon="1.38744">
        <ele>16</ele>
        <time>2011-10-23T08:39:41Z</time>
      </trkpt>
      <trkpt lat="49.22387" lon="1.38729">
        <ele>16</ele>
        <time>2011-10-23T08:39:48Z</time>
      </trkpt>
      <trkpt lat="49.22388" lon="1.38713">
        <ele>16</ele>
        <time>2011-10-23T08:39:56Z</time>
      </trkpt>
      <trkpt lat="49.22383" lon="1.387">
        <ele>11</ele>
        <time>2011-10-23T08:40:21Z</time>
      </trkpt>
      <trkpt lat="49.22393" lon="1.38697">
        <ele>11</ele>
        <time>2011-10-23T08:41:09Z</time>
      </trkpt>
      <trkpt lat="49.22384" lon="1.38703">
        <ele>11</ele>
        <time>2011-10-23T08:42:51Z</time>
      </trkpt>
      <trkpt lat="49.22375" lon="1.38695">
        <ele>11</ele>
        <time>2011-10-23T08:42:57Z</time>
      </trkpt>
      <trkpt lat="49.22366" lon="1.38687">
        <ele>11</ele>
        <time>2011-10-23T08:43:03Z</time>
      </trkpt>
      <trkpt lat="49.22358" lon="1.38677">
        <ele>11</ele>
        <time>2011-10-23T08:43:09Z</time>
      </trkpt>
      <trkpt lat="49.2235" lon="1.38669">
        <ele>11</ele>
        <time>2011-10-23T08:43:16Z</time>
      </trkpt>
      <trkpt lat="49.22348" lon="1.38656">
        <ele>11</ele>
        <time>2011-10-23T08:43:23Z</time>
      </trkpt>
      <trkpt lat="49.22342" lon="1.38645">
        <ele>11</ele>
        <time>2011-10-23T08:43:29Z</time>
      </trkpt>
      <trkpt lat="49.22334" lon="1.38634">
        <ele>11</ele>
        <time>2011-10-23T08:43:37Z</time>
      </trkpt>
      <trkpt lat="49.22328" lon="1.38622">
        <ele>11</ele>
        <time>2011-10-23T08:43:44Z</time>
      </trkpt>
      <trkpt lat="49.22321" lon="1.38611">
        <ele>11</ele>
        <time>2011-10-23T08:43:52Z</time>
      </trkpt>
      <trkpt lat="49.22313" lon="1.38601">
        <ele>17</ele>
        <time>2011-10-23T08:43:59Z</time>
      </trkpt>
      <trkpt lat="49.22307" lon="1.38591">
        <ele>17</ele>
        <time>2011-10-23T08:44:06Z</time>
      </trkpt>
      <trkpt lat="49.22301" lon="1.3858">
        <ele>17</ele>
        <time>2011-10-23T08:44:13Z</time>
      </trkpt>
      <trkpt lat="49.22294" lon="1.38569">
        <ele>17</ele>
        <time>2011-10-23T08:44:20Z</time>
      </trkpt>
      <trkpt lat="49.22289" lon="1.38557">
        <ele>17</ele>
        <time>2011-10-23T08:44:27Z</time>
      </trkpt>
      <trkpt lat="49.22282" lon="1.38546">
        <ele>17</ele>
        <time>2011-10-23T08:44:34Z</time>
      </trkpt>
      <trkpt lat="49.22276" lon="1.38536">
        <ele>17</ele>
        <time>2011-10-23T08:44:39Z</time>
      </trkpt>
      <trkpt lat="49.22269" lon="1.38527">
        <ele>17</ele>
        <time>2011-10-23T08:44:45Z</time>
      </trkpt>
      <trkpt lat="49.22263" lon="1.38516">
        <ele>17</ele>
        <time>2011-10-23T08:44:53Z</time>
      </trkpt>
      <trkpt lat="49.22256" lon="1.38505">
        <ele>17</ele>
        <time>2011-10-23T08:45:01Z</time>
      </trkpt>
      <trkpt lat="49.2225" lon="1.38493">
        <ele>17</ele>
        <time>2011-10-23T08:45:07Z</time>
      </trkpt>
      <trkpt lat="49.22245" lon="1.38481">
        <ele>17</ele>
        <time>2011-10-23T08:45:14Z</time>
      </trkpt>
      <trkpt lat="49.22237" lon="1.3847">
        <ele>17</ele>
        <time>2011-10-23T08:45:21Z</time>
      </trkpt>
      <trkpt lat="49.22232" lon="1.38457">
        <ele>11</ele>
        <time>2011-10-23T08:45:29Z</time>
      </trkpt>
      <trkpt lat="49.22224" lon="1.38449">
        <ele>11</ele>
        <time>2011-10-23T08:45:35Z</time>
      </trkpt>
      <trkpt lat="49.22217" lon="1.38439">
        <ele>11</ele>
        <time>2011-10-23T08:45:40Z</time>
      </trkpt>
      <trkpt lat="49.2221" lon="1.38429">
        <ele>11</ele>
        <time>2011-10-23T08:45:46Z</time>
      </trkpt>
      <trkpt lat="49.22204" lon="1.38419">
        <ele>11</ele>
        <time>2011-10-23T08:45:53Z</time>
      </trkpt>
      <trkpt lat="49.22196" lon="1.38409">
        <ele>11</ele>
        <time>2011-10-23T08:46:00Z</time>
      </trkpt>
      <trkpt lat="49.22191" lon="1.38396">
        <ele>11</ele>
        <time>2011-10-23T08:46:09Z</time>
      </trkpt>
      <trkpt lat="49.22182" lon="1.38387">
        <ele>17</ele>
        <time>2011-10-23T08:46:15Z</time>
      </trkpt>
      <trkpt lat="49.22177" lon="1.38373">
        <ele>17</ele>
        <time>2011-10-23T08:46:23Z</time>
      </trkpt>
      <trkpt lat="49.22172" lon="1.3836">
        <ele>17</ele>
        <time>2011-10-23T08:46:29Z</time>
      </trkpt>
      <trkpt lat="49.22164" lon="1.38352">
        <ele>17</ele>
        <time>2011-10-23T08:46:35Z</time>
      </trkpt>
      <trkpt lat="49.22158" lon="1.38341">
        <ele>17</ele>
        <time>2011-10-23T08:46:41Z</time>
      </trkpt>
      <trkpt lat="49.2215" lon="1.38333">
        <ele>17</ele>
        <time>2011-10-23T08:46:46Z</time>
      </trkpt>
      <trkpt lat="49.22145" lon="1.38321">
        <ele>17</ele>
        <time>2011-10-23T08:46:53Z</time>
      </trkpt>
      <trkpt lat="49.22139" lon="1.38308">
        <ele>17</ele>
        <time>2011-10-23T08:47:00Z</time>
      </trkpt>
      <trkpt lat="49.22134" lon="1.38296">
        <ele>17</ele>
        <time>2011-10-23T08:47:07Z</time>
      </trkpt>
      <trkpt lat="49.22127" lon="1.38284">
        <ele>17</ele>
        <time>2011-10-23T08:47:13Z</time>
      </trkpt>
      <trkpt lat="49.22122" lon="1.38271">
        <ele>17</ele>
        <time>2011-10-23T08:47:19Z</time>
      </trkpt>
      <trkpt lat="49.22115" lon="1.3826">
        <ele>17</ele>
        <time>2011-10-23T08:47:26Z</time>
      </trkpt>
      <trkpt lat="49.22111" lon="1.38246">
        <ele>17</ele>
        <time>2011-10-23T08:47:32Z</time>
      </trkpt>
      <trkpt lat="49.22105" lon="1.38235">
        <ele>17</ele>
        <time>2011-10-23T08:47:39Z</time>
      </trkpt>
      <trkpt lat="49.22097" lon="1.38226">
        <ele>17</ele>
        <time>2011-10-23T08:47:45Z</time>
      </trkpt>
      <trkpt lat="49.22088" lon="1.38221">
        <ele>17</ele>
        <time>2011-10-23T08:47:52Z</time>
      </trkpt>
      <trkpt lat="49.22081" lon="1.38212">
        <ele>17</ele>
        <time>2011-10-23T08:47:59Z</time>
      </trkpt>
      <trkpt lat="49.22073" lon="1.38202">
        <ele>17</ele>
        <time>2011-10-23T08:48:07Z</time>
      </trkpt>
      <trkpt lat="49.22066" lon="1.38192">
        <ele>17</ele>
        <time>2011-10-23T08:48:12Z</time>
      </trkpt>
      <trkpt lat="49.2206" lon="1.38182">
        <ele>17</ele>
        <time>2011-10-23T08:48:19Z</time>
      </trkpt>
      <trkpt lat="49.22057" lon="1.38167">
        <ele>17</ele>
        <time>2011-10-23T08:48:25Z</time>
      </trkpt>
      <trkpt lat="49.22062" lon="1.38154">
        <ele>17</ele>
        <time>2011-10-23T08:48:32Z</time>
      </trkpt>
      <trkpt lat="49.22063" lon="1.38139">
        <ele>17</ele>
        <time>2011-10-23T08:48:51Z</time>
      </trkpt>
      <trkpt lat="49.22068" lon="1.38127">
        <ele>17</ele>
        <time>2011-10-23T08:48:57Z</time>
      </trkpt>
      <trkpt lat="49.22074" lon="1.38113">
        <ele>17</ele>
        <time>2011-10-23T08:49:04Z</time>
      </trkpt>
      <trkpt lat="49.22078" lon="1.38101">
        <ele>17</ele>
        <time>2011-10-23T08:49:09Z</time>
      </trkpt>
      <trkpt lat="49.22086" lon="1.38093">
        <ele>12</ele>
        <time>2011-10-23T08:49:15Z</time>
      </trkpt>
      <trkpt lat="49.22089" lon="1.38079">
        <ele>12</ele>
        <time>2011-10-23T08:49:21Z</time>
      </trkpt>
      <trkpt lat="49.22095" lon="1.38068">
        <ele>12</ele>
        <time>2011-10-23T08:49:31Z</time>
      </trkpt>
      <trkpt lat="49.22101" lon="1.38055">
        <ele>12</ele>
        <time>2011-10-23T08:49:39Z</time>
      </trkpt>
      <trkpt lat="49.22107" lon="1.38042">
        <ele>12</ele>
        <time>2011-10-23T08:49:45Z</time>
      </trkpt>
      <trkpt lat="49.22111" lon="1.3803">
        <ele>12</ele>
        <time>2011-10-23T08:49:51Z</time>
      </trkpt>
      <trkpt lat="49.22117" lon="1.38018">
        <ele>12</ele>
        <time>2011-10-23T08:49:57Z</time>
      </trkpt>
      <trkpt lat="49.22123" lon="1.38006">
        <ele>12</ele>
        <time>2011-10-23T08:50:04Z</time>
      </trkpt>
      <trkpt lat="49.2213" lon="1.37995">
        <ele>12</ele>
        <time>2011-10-23T08:50:10Z</time>
      </trkpt>
      <trkpt lat="49.22135" lon="1.37982">
        <ele>12</ele>
        <time>2011-10-23T08:50:16Z</time>
      </trkpt>
      <trkpt lat="49.2214" lon="1.3797">
        <ele>12</ele>
        <time>2011-10-23T08:50:22Z</time>
      </trkpt>
      <trkpt lat="49.2214" lon="1.37956">
        <ele>12</ele>
        <time>2011-10-23T08:50:29Z</time>
      </trkpt>
      <trkpt lat="49.22131" lon="1.37949">
        <ele>12</ele>
        <time>2011-10-23T08:50:38Z</time>
      </trkpt>
      <trkpt lat="49.22122" lon="1.37942">
        <ele>12</ele>
        <time>2011-10-23T08:50:48Z</time>
      </trkpt>
      <trkpt lat="49.22112" lon="1.37936">
        <ele>12</ele>
        <time>2011-10-23T08:50:53Z</time>
      </trkpt>
      <trkpt lat="49.22103" lon="1.37928">
        <ele>12</ele>
        <time>2011-10-23T08:50:59Z</time>
      </trkpt>
      <trkpt lat="49.22094" lon="1.37922">
        <ele>17</ele>
        <time>2011-10-23T08:51:05Z</time>
      </trkpt>
      <trkpt lat="49.22086" lon="1.37915">
        <ele>17</ele>
        <time>2011-10-23T08:51:11Z</time>
      </trkpt>
      <trkpt lat="49.22076" lon="1.37909">
        <ele>17</ele>
        <time>2011-10-23T08:51:18Z</time>
      </trkpt>
      <trkpt lat="49.22067" lon="1.37901">
        <ele>17</ele>
        <time>2011-10-23T08:51:25Z</time>
      </trkpt>
      <trkpt lat="49.22057" lon="1.37897">
        <ele>17</ele>
        <time>2011-10-23T08:51:32Z</time>
      </trkpt>
      <trkpt lat="49.22049" lon="1.3789">
        <ele>17</ele>
        <time>2011-10-23T08:51:39Z</time>
      </trkpt>
      <trkpt lat="49.2204" lon="1.37885">
        <ele>17</ele>
        <time>2011-10-23T08:51:46Z</time>
      </trkpt>
      <trkpt lat="49.22032" lon="1.37877">
        <ele>17</ele>
        <time>2011-10-23T08:51:52Z</time>
      </trkpt>
      <trkpt lat="49.22023" lon="1.37867">
        <ele>17</ele>
        <time>2011-10-23T08:51:59Z</time>
      </trkpt>
      <trkpt lat="49.22013" lon="1.37861">
        <ele>17</ele>
        <time>2011-10-23T08:52:07Z</time>
      </trkpt>
      <trkpt lat="49.22006" lon="1.37852">
        <ele>17</ele>
        <time>2011-10-23T08:52:14Z</time>
      </trkpt>
      <trkpt lat="49.21999" lon="1.37842">
        <ele>17</ele>
        <time>2011-10-23T08:52:19Z</time>
      </trkpt>
      <trkpt lat="49.2199" lon="1.37834">
        <ele>17</ele>
        <time>2011-10-23T08:52:26Z</time>
      </trkpt>
      <trkpt lat="49.21982" lon="1.37825">
        <ele>17</ele>
        <time>2011-10-23T08:52:33Z</time>
      </trkpt>
      <trkpt lat="49.21973" lon="1.37818">
        <ele>17</ele>
        <time>2011-10-23T08:52:38Z</time>
      </trkpt>
      <trkpt lat="49.21965" lon="1.3781">
        <ele>17</ele>
        <time>2011-10-23T08:52:45Z</time>
      </trkpt>
      <trkpt lat="49.21957" lon="1.37801">
        <ele>17</ele>
        <time>2011-10-23T08:52:52Z</time>
      </trkpt>
      <trkpt lat="49.21949" lon="1.37794">
        <ele>17</ele>
        <time>2011-10-23T08:52:58Z</time>
      </trkpt>
      <trkpt lat="49.21941" lon="1.37784">
        <ele>10</ele>
        <time>2011-10-23T08:53:06Z</time>
      </trkpt>
      <trkpt lat="49.21934" lon="1.37774">
        <ele>10</ele>
        <time>2011-10-23T08:53:13Z</time>
      </trkpt>
      <trkpt lat="49.21926" lon="1.37765">
        <ele>10</ele>
        <time>2011-10-23T08:53:19Z</time>
      </trkpt>
      <trkpt lat="49.21918" lon="1.37756">
        <ele>10</ele>
        <time>2011-10-23T08:53:24Z</time>
      </trkpt>
      <trkpt lat="49.21909" lon="1.37747">
        <ele>10</ele>
        <time>2011-10-23T08:53:30Z</time>
      </trkpt>
      <trkpt lat="49.21902" lon="1.37739">
        <ele>10</ele>
        <time>2011-10-23T08:53:35Z</time>
      </trkpt>
      <trkpt lat="49.21893" lon="1.3773">
        <ele>10</ele>
        <time>2011-10-23T08:53:41Z</time>
      </trkpt>
      <trkpt lat="49.21886" lon="1.37719">
        <ele>10</ele>
        <time>2011-10-23T08:53:48Z</time>
      </trkpt>
      <trkpt lat="49.21877" lon="1.37711">
        <ele>10</ele>
        <time>2011-10-23T08:53:54Z</time>
      </trkpt>
      <trkpt lat="49.21868" lon="1.37703">
        <ele>10</ele>
        <time>2011-10-23T08:54:01Z</time>
      </trkpt>
      <trkpt lat="49.2186" lon="1.37695">
        <ele>10</ele>
        <time>2011-10-23T08:54:07Z</time>
      </trkpt>
      <trkpt lat="49.21852" lon="1.37687">
        <ele>10</ele>
        <time>2011-10-23T08:54:13Z</time>
      </trkpt>
      <trkpt lat="49.21843" lon="1.37677">
        <ele>10</ele>
        <time>2011-10-23T08:54:19Z</time>
      </trkpt>
      <trkpt lat="49.21836" lon="1.37667">
        <ele>10</ele>
        <time>2011-10-23T08:54:27Z</time>
      </trkpt>
      <trkpt lat="49.21828" lon="1.37657">
        <ele>10</ele>
        <time>2011-10-23T08:54:33Z</time>
      </trkpt>
      <trkpt lat="49.2182" lon="1.37648">
        <ele>10</ele>
        <time>2011-10-23T08:54:39Z</time>
      </trkpt>
      <trkpt lat="49.21811" lon="1.37648">
        <ele>10</ele>
        <time>2011-10-23T08:56:30Z</time>
      </trkpt>
      <trkpt lat="49.21801" lon="1.37652">
        <ele>10</ele>
        <time>2011-10-23T08:56:39Z</time>
      </trkpt>
      <trkpt lat="49.21791" lon="1.37648">
        <ele>17</ele>
        <time>2011-10-23T08:56:50Z</time>
      </trkpt>
      <trkpt lat="49.21784" lon="1.37639">
        <ele>17</ele>
        <time>2011-10-23T08:56:56Z</time>
      </trkpt>
      <trkpt lat="49.21777" lon="1.3763">
        <ele>17</ele>
        <time>2011-10-23T08:57:01Z</time>
      </trkpt>
      <trkpt lat="49.21769" lon="1.37621">
        <ele>17</ele>
        <time>2011-10-23T08:57:08Z</time>
      </trkpt>
      <trkpt lat="49.21765" lon="1.37608">
        <ele>17</ele>
        <time>2011-10-23T08:57:15Z</time>
      </trkpt>
      <trkpt lat="49.21761" lon="1.37593">
        <ele>12</ele>
        <time>2011-10-23T08:57:23Z</time>
      </trkpt>
      <trkpt lat="49.21756" lon="1.37582">
        <ele>12</ele>
        <time>2011-10-23T08:57:29Z</time>
      </trkpt>
      <trkpt lat="49.2175" lon="1.37571">
        <ele>12</ele>
        <time>2011-10-23T08:57:36Z</time>
      </trkpt>
      <trkpt lat="49.21744" lon="1.37558">
        <ele>12</ele>
        <time>2011-10-23T08:57:43Z</time>
      </trkpt>
      <trkpt lat="49.2174" lon="1.37544">
        <ele>12</ele>
        <time>2011-10-23T08:57:50Z</time>
      </trkpt>
      <trkpt lat="49.21734" lon="1.37534">
        <ele>12</ele>
        <time>2011-10-23T08:57:58Z</time>
      </trkpt>
      <trkpt lat="49.21728" lon="1.37522">
        <ele>12</ele>
        <time>2011-10-23T08:58:07Z</time>
      </trkpt>
      <trkpt lat="49.21723" lon="1.3751">
        <ele>12</ele>
        <time>2011-10-23T08:58:14Z</time>
      </trkpt>
      <trkpt lat="49.21717" lon="1.37499">
        <ele>12</ele>
        <time>2011-10-23T08:58:21Z</time>
      </trkpt>
      <trkpt lat="49.21711" lon="1.37487">
        <ele>12</ele>
        <time>2011-10-23T08:58:30Z</time>
      </trkpt>
      <trkpt lat="49.21704" lon="1.37475">
        <ele>12</ele>
        <time>2011-10-23T08:58:38Z</time>
      </trkpt>
      <trkpt lat="49.21699" lon="1.37462">
        <ele>12</ele>
        <time>2011-10-23T08:58:45Z</time>
      </trkpt>
      <trkpt lat="49.21693" lon="1.3745">
        <ele>12</ele>
        <time>2011-10-23T08:58:51Z</time>
      </trkpt>
      <trkpt lat="49.21689" lon="1.37438">
        <ele>12</ele>
        <time>2011-10-23T08:58:58Z</time>
      </trkpt>
      <trkpt lat="49.21682" lon="1.37427">
        <ele>12</ele>
        <time>2011-10-23T08:59:05Z</time>
      </trkpt>
      <trkpt lat="49.21677" lon="1.37414">
        <ele>17</ele>
        <time>2011-10-23T08:59:12Z</time>
      </trkpt>
      <trkpt lat="49.21671" lon="1.374">
        <ele>17</ele>
        <time>2011-10-23T08:59:19Z</time>
      </trkpt>
      <trkpt lat="49.21669" lon="1.37386">
        <ele>17</ele>
        <time>2011-10-23T08:59:24Z</time>
      </trkpt>
      <trkpt lat="49.21664" lon="1.37373">
        <ele>17</ele>
        <time>2011-10-23T08:59:32Z</time>
      </trkpt>
      <trkpt lat="49.21664" lon="1.37359">
        <ele>17</ele>
        <time>2011-10-23T08:59:40Z</time>
      </trkpt>
      <trkpt lat="49.21664" lon="1.37343">
        <ele>22</ele>
        <time>2011-10-23T08:59:50Z</time>
      </trkpt>
      <trkpt lat="49.21658" lon="1.37331">
        <ele>22</ele>
        <time>2011-10-23T08:59:58Z</time>
      </trkpt>
      <trkpt lat="49.21651" lon="1.3732">
        <ele>22</ele>
        <time>2011-10-23T09:00:03Z</time>
      </trkpt>
      <trkpt lat="49.21646" lon="1.37308">
        <ele>22</ele>
        <time>2011-10-23T09:00:10Z</time>
      </trkpt>
      <trkpt lat="49.21647" lon="1.37294">
        <ele>22</ele>
        <time>2011-10-23T09:00:17Z</time>
      </trkpt>
      <trkpt lat="49.21645" lon="1.3728">
        <ele>22</ele>
        <time>2011-10-23T09:00:27Z</time>
      </trkpt>
      <trkpt lat="49.2164" lon="1.37268">
        <ele>30</ele>
        <time>2011-10-23T09:00:37Z</time>
      </trkpt>
      <trkpt lat="49.21633" lon="1.37257">
        <ele>30</ele>
        <time>2011-10-23T09:00:46Z</time>
      </trkpt>
      <trkpt lat="49.21626" lon="1.37246">
        <ele>30</ele>
        <time>2011-10-23T09:00:52Z</time>
      </trkpt>
      <trkpt lat="49.21621" lon="1.37233">
        <ele>30</ele>
        <time>2011-10-23T09:01:00Z</time>
      </trkpt>
      <trkpt lat="49.21614" lon="1.37224">
        <ele>30</ele>
        <time>2011-10-23T09:01:08Z</time>
      </trkpt>
      <trkpt lat="49.21608" lon="1.37211">
        <ele>30</ele>
        <time>2011-10-23T09:01:17Z</time>
      </trkpt>
      <trkpt lat="49.21601" lon="1.37201">
        <ele>30</ele>
        <time>2011-10-23T09:01:24Z</time>
      </trkpt>
      <trkpt lat="49.21597" lon="1.37187">
        <ele>30</ele>
        <time>2011-10-23T09:01:34Z</time>
      </trkpt>
      <trkpt lat="49.21592" lon="1.37174">
        <ele>30</ele>
        <time>2011-10-23T09:01:41Z</time>
      </trkpt>
      <trkpt lat="49.21588" lon="1.37161">
        <ele>30</ele>
        <time>2011-10-23T09:01:48Z</time>
      </trkpt>
      <trkpt lat="49.21588" lon="1.37147">
        <ele>30</ele>
        <time>2011-10-23T09:01:57Z</time>
      </trkpt>
      <trkpt lat="49.21584" lon="1.37133">
        <ele>30</ele>
        <time>2011-10-23T09:02:14Z</time>
      </trkpt>
      <trkpt lat="49.21581" lon="1.3712">
        <ele>30</ele>
        <time>2011-10-23T09:02:22Z</time>
      </trkpt>
      <trkpt lat="49.2158" lon="1.37104">
        <ele>30</ele>
        <time>2011-10-23T09:02:33Z</time>
      </trkpt>
      <trkpt lat="49.21573" lon="1.37092">
        <ele>25</ele>
        <time>2011-10-23T09:02:44Z</time>
      </trkpt>
      <trkpt lat="49.21572" lon="1.37077">
        <ele>25</ele>
        <time>2011-10-23T09:02:57Z</time>
      </trkpt>
      <trkpt lat="49.21571" lon="1.37061">
        <ele>25</ele>
        <time>2011-10-23T09:03:08Z</time>
      </trkpt>
      <trkpt lat="49.21568" lon="1.37048">
        <ele>25</ele>
        <time>2011-10-23T09:03:17Z</time>
      </trkpt>
      <trkpt lat="49.21563" lon="1.37035">
        <ele>25</ele>
        <time>2011-10-23T09:03:29Z</time>
      </trkpt>
      <trkpt lat="49.21565" lon="1.37021">
        <ele>31</ele>
        <time>2011-10-23T09:03:36Z</time>
      </trkpt>
      <trkpt lat="49.21567" lon="1.37007">
        <ele>31</ele>
        <time>2011-10-23T09:03:45Z</time>
      </trkpt>
      <trkpt lat="49.21567" lon="1.36992">
        <ele>31</ele>
        <time>2011-10-23T09:03:53Z</time>
      </trkpt>
      <trkpt lat="49.21566" lon="1.36978">
        <ele>31</ele>
        <time>2011-10-23T09:04:00Z</time>
      </trkpt>
      <trkpt lat="49.21562" lon="1.36965">
        <ele>31</ele>
        <time>2011-10-23T09:04:09Z</time>
      </trkpt>
      <trkpt lat="49.21561" lon="1.36951">
        <ele>31</ele>
        <time>2011-10-23T09:04:18Z</time>
      </trkpt>
      <trkpt lat="49.21557" lon="1.36937">
        <ele>31</ele>
        <time>2011-10-23T09:04:29Z</time>
      </trkpt>
      <trkpt lat="49.21557" lon="1.36923">
        <ele>31</ele>
        <time>2011-10-23T09:04:36Z</time>
      </trkpt>
      <trkpt lat="49.21557" lon="1.36907">
        <ele>31</ele>
        <time>2011-10-23T09:04:44Z</time>
      </trkpt>
      <trkpt lat="49.21556" lon="1.36893">
        <ele>31</ele>
        <time>2011-10-23T09:04:53Z</time>
      </trkpt>
      <trkpt lat="49.21551" lon="1.36879">
        <ele>31</ele>
        <time>2011-10-23T09:05:03Z</time>
      </trkpt>
      <trkpt lat="49.21552" lon="1.36865">
        <ele>31</ele>
        <time>2011-10-23T09:05:10Z</time>
      </trkpt>
      <trkpt lat="49.21552" lon="1.36849">
        <ele>39</ele>
        <time>2011-10-23T09:05:18Z</time>
      </trkpt>
      <trkpt lat="49.21551" lon="1.36835">
        <ele>39</ele>
        <time>2011-10-23T09:05:39Z</time>
      </trkpt>
      <trkpt lat="49.2155" lon="1.3682">
        <ele>39</ele>
        <time>2011-10-23T09:05:49Z</time>
      </trkpt>
      <trkpt lat="49.2155" lon="1.36805">
        <ele>39</ele>
        <time>2011-10-23T09:05:58Z</time>
      </trkpt>
      <trkpt lat="49.21547" lon="1.36792">
        <ele>39</ele>
        <time>2011-10-23T09:06:05Z</time>
      </trkpt>
      <trkpt lat="49.21548" lon="1.36778">
        <ele>39</ele>
        <time>2011-10-23T09:06:13Z</time>
      </trkpt>
      <trkpt lat="49.21547" lon="1.36763">
        <ele>39</ele>
        <time>2011-10-23T09:06:21Z</time>
      </trkpt>
      <trkpt lat="49.21549" lon="1.36749">
        <ele>39</ele>
        <time>2011-10-23T09:06:31Z</time>
      </trkpt>
      <trkpt lat="49.21553" lon="1.36735">
        <ele>39</ele>
        <time>2011-10-23T09:06:40Z</time>
      </trkpt>
      <trkpt lat="49.21558" lon="1.36721">
        <ele>39</ele>
        <time>2011-10-23T09:06:48Z</time>
      </trkpt>
      <trkpt lat="49.21561" lon="1.36707">
        <ele>39</ele>
        <time>2011-10-23T09:06:56Z</time>
      </trkpt>
      <trkpt lat="49.21565" lon="1.36694">
        <ele>39</ele>
        <time>2011-10-23T09:07:04Z</time>
      </trkpt>
      <trkpt lat="49.21566" lon="1.3668">
        <ele>39</ele>
        <time>2011-10-23T09:07:11Z</time>
      </trkpt>
      <trkpt lat="49.2157" lon="1.36665">
        <ele>39</ele>
        <time>2011-10-23T09:07:19Z</time>
      </trkpt>
      <trkpt lat="49.21574" lon="1.36652">
        <ele>39</ele>
        <time>2011-10-23T09:07:26Z</time>
      </trkpt>
      <trkpt lat="49.21577" lon="1.36637">
        <ele>39</ele>
        <time>2011-10-23T09:07:34Z</time>
      </trkpt>
      <trkpt lat="49.2158" lon="1.36623">
        <ele>39</ele>
        <time>2011-10-23T09:07:41Z</time>
      </trkpt>
      <trkpt lat="49.21584" lon="1.36608">
        <ele>39</ele>
        <time>2011-10-23T09:07:49Z</time>
      </trkpt>
      <trkpt lat="49.21587" lon="1.36594">
        <ele>39</ele>
        <time>2011-10-23T09:07:57Z</time>
      </trkpt>
      <trkpt lat="49.2159" lon="1.36581">
        <ele>39</ele>
        <time>2011-10-23T09:08:04Z</time>
      </trkpt>
      <trkpt lat="49.21593" lon="1.36567">
        <ele>39</ele>
        <time>2011-10-23T09:08:11Z</time>
      </trkpt>
      <trkpt lat="49.21597" lon="1.36553">
        <ele>39</ele>
        <time>2011-10-23T09:08:19Z</time>
      </trkpt>
      <trkpt lat="49.21601" lon="1.36539">
        <ele>33</ele>
        <time>2011-10-23T09:08:26Z</time>
      </trkpt>
      <trkpt lat="49.21604" lon="1.36525">
        <ele>33</ele>
        <time>2011-10-23T09:08:33Z</time>
      </trkpt>
      <trkpt lat="49.21608" lon="1.36512">
        <ele>33</ele>
        <time>2011-10-23T09:08:41Z</time>
      </trkpt>
      <trkpt lat="49.21611" lon="1.36497">
        <ele>33</ele>
        <time>2011-10-23T09:08:49Z</time>
      </trkpt>
      <trkpt lat="49.21611" lon="1.36483">
        <ele>39</ele>
        <time>2011-10-23T09:08:59Z</time>
      </trkpt>
      <trkpt lat="49.21621" lon="1.36482">
        <ele>39</ele>
        <time>2011-10-23T09:09:18Z</time>
      </trkpt>
      <trkpt lat="49.21629" lon="1.36492">
        <ele>39</ele>
        <time>2011-10-23T09:09:26Z</time>
      </trkpt>
      <trkpt lat="49.21636" lon="1.36501">
        <ele>39</ele>
        <time>2011-10-23T09:09:32Z</time>
      </trkpt>
      <trkpt lat="49.21644" lon="1.36508">
        <ele>39</ele>
        <time>2011-10-23T09:09:39Z</time>
      </trkpt>
      <trkpt lat="49.21648" lon="1.36522">
        <ele>49</ele>
        <time>2011-10-23T09:09:49Z</time>
      </trkpt>
      <trkpt lat="49.21657" lon="1.36529">
        <ele>49</ele>
        <time>2011-10-23T09:09:55Z</time>
      </trkpt>
      <trkpt lat="49.21663" lon="1.36539">
        <ele>49</ele>
        <time>2011-10-23T09:10:02Z</time>
      </trkpt>
      <trkpt lat="49.2167" lon="1.3655">
        <ele>54</ele>
        <time>2011-10-23T09:10:09Z</time>
      </trkpt>
      <trkpt lat="49.2168" lon="1.36557">
        <ele>54</ele>
        <time>2011-10-23T09:10:14Z</time>
      </trkpt>
      <trkpt lat="49.21687" lon="1.36567">
        <ele>48</ele>
        <time>2011-10-23T09:10:22Z</time>
      </trkpt>
      <trkpt lat="49.21696" lon="1.36575">
        <ele>48</ele>
        <time>2011-10-23T09:10:31Z</time>
      </trkpt>
      <trkpt lat="49.21704" lon="1.36586">
        <ele>48</ele>
        <time>2011-10-23T09:10:36Z</time>
      </trkpt>
      <trkpt lat="49.21711" lon="1.36597">
        <ele>48</ele>
        <time>2011-10-23T09:10:43Z</time>
      </trkpt>
      <trkpt lat="49.2172" lon="1.36608">
        <ele>48</ele>
        <time>2011-10-23T09:10:51Z</time>
      </trkpt>
      <trkpt lat="49.21729" lon="1.36619">
        <ele>48</ele>
        <time>2011-10-23T09:10:57Z</time>
      </trkpt>
      <trkpt lat="49.21737" lon="1.36623">
        <ele>42</ele>
        <time>2011-10-23T09:11:01Z</time>
      </trkpt>
      <trkpt lat="49.21747" lon="1.36629">
        <ele>42</ele>
        <time>2011-10-23T09:11:08Z</time>
      </trkpt>
      <trkpt lat="49.21757" lon="1.36636">
        <ele>42</ele>
        <time>2011-10-23T09:11:13Z</time>
      </trkpt>
      <trkpt lat="49.21763" lon="1.36649">
        <ele>42</ele>
        <time>2011-10-23T09:11:20Z</time>
      </trkpt>
      <trkpt lat="49.2177" lon="1.36657">
        <ele>42</ele>
        <time>2011-10-23T09:11:25Z</time>
      </trkpt>
      <trkpt lat="49.21779" lon="1.36668">
        <ele>42</ele>
        <time>2011-10-23T09:11:32Z</time>
      </trkpt>
      <trkpt lat="49.21784" lon="1.36681">
        <ele>42</ele>
        <time>2011-10-23T09:11:37Z</time>
      </trkpt>
      <trkpt lat="49.2179" lon="1.36692">
        <ele>42</ele>
        <time>2011-10-23T09:11:44Z</time>
      </trkpt>
      <trkpt lat="49.21797" lon="1.36702">
        <ele>36</ele>
        <time>2011-10-23T09:11:50Z</time>
      </trkpt>
      <trkpt lat="49.21804" lon="1.36711">
        <ele>36</ele>
        <time>2011-10-23T09:11:56Z</time>
      </trkpt>
      <trkpt lat="49.21801" lon="1.36726">
        <ele>36</ele>
        <time>2011-10-23T09:12:05Z</time>
      </trkpt>
      <trkpt lat="49.21811" lon="1.36723">
        <ele>44</ele>
        <time>2011-10-23T09:12:46Z</time>
      </trkpt>
      <trkpt lat="49.2182" lon="1.3673">
        <ele>50</ele>
        <time>2011-10-23T09:13:07Z</time>
      </trkpt>
      <trkpt lat="49.21827" lon="1.36738">
        <ele>50</ele>
        <time>2011-10-23T09:13:13Z</time>
      </trkpt>
      <trkpt lat="49.21835" lon="1.36747">
        <ele>44</ele>
        <time>2011-10-23T09:13:20Z</time>
      </trkpt>
      <trkpt lat="49.2184" lon="1.3676">
        <ele>44</ele>
        <time>2011-10-23T09:13:29Z</time>
      </trkpt>
      <trkpt lat="49.21844" lon="1.36773">
        <ele>52</ele>
        <time>2011-10-23T09:13:38Z</time>
      </trkpt>
      <trkpt lat="49.21852" lon="1.36785">
        <ele>52</ele>
        <time>2011-10-23T09:13:45Z</time>
      </trkpt>
      <trkpt lat="49.21862" lon="1.36793">
        <ele>52</ele>
        <time>2011-10-23T09:13:50Z</time>
      </trkpt>
      <trkpt lat="49.2187" lon="1.36799">
        <ele>52</ele>
        <time>2011-10-23T09:13:55Z</time>
      </trkpt>
      <trkpt lat="49.21879" lon="1.36804">
        <ele>52</ele>
        <time>2011-10-23T09:14:01Z</time>
      </trkpt>
      <trkpt lat="49.21888" lon="1.36812">
        <ele>52</ele>
        <time>2011-10-23T09:14:06Z</time>
      </trkpt>
      <trkpt lat="49.21896" lon="1.3682">
        <ele>44</ele>
        <time>2011-10-23T09:14:11Z</time>
      </trkpt>
      <trkpt lat="49.21904" lon="1.36826">
        <ele>44</ele>
        <time>2011-10-23T09:14:18Z</time>
      </trkpt>
      <trkpt lat="49.21912" lon="1.36833">
        <ele>44</ele>
        <time>2011-10-23T09:14:24Z</time>
      </trkpt>
      <trkpt lat="49.21919" lon="1.36842">
        <ele>44</ele>
        <time>2011-10-23T09:14:29Z</time>
      </trkpt>
      <trkpt lat="49.21925" lon="1.36854">
        <ele>44</ele>
        <time>2011-10-23T09:14:35Z</time>
      </trkpt>
      <trkpt lat="49.21932" lon="1.36863">
        <ele>44</ele>
        <time>2011-10-23T09:14:41Z</time>
      </trkpt>
      <trkpt lat="49.2194" lon="1.36874">
        <ele>44</ele>
        <time>2011-10-23T09:14:48Z</time>
      </trkpt>
      <trkpt lat="49.21949" lon="1.36881">
        <ele>38</ele>
        <time>2011-10-23T09:14:54Z</time>
      </trkpt>
      <trkpt lat="49.21958" lon="1.36888">
        <ele>38</ele>
        <time>2011-10-23T09:15:01Z</time>
      </trkpt>
      <trkpt lat="49.21967" lon="1.36896">
        <ele>38</ele>
        <time>2011-10-23T09:15:10Z</time>
      </trkpt>
      <trkpt lat="49.21974" lon="1.36908">
        <ele>38</ele>
        <time>2011-10-23T09:15:16Z</time>
      </trkpt>
      <trkpt lat="49.21981" lon="1.36919">
        <ele>38</ele>
        <time>2011-10-23T09:15:24Z</time>
      </trkpt>
      <trkpt lat="49.21987" lon="1.3693">
        <ele>43</ele>
        <time>2011-10-23T09:15:32Z</time>
      </trkpt>
      <trkpt lat="49.21994" lon="1.36941">
        <ele>43</ele>
        <time>2011-10-23T09:15:38Z</time>
      </trkpt>
      <trkpt lat="49.21999" lon="1.36954">
        <ele>43</ele>
        <time>2011-10-23T09:15:44Z</time>
      </trkpt>
      <trkpt lat="49.22006" lon="1.36965">
        <ele>43</ele>
        <time>2011-10-23T09:15:50Z</time>
      </trkpt>
      <trkpt lat="49.22011" lon="1.36978">
        <ele>43</ele>
        <time>2011-10-23T09:15:56Z</time>
      </trkpt>
      <trkpt lat="49.22016" lon="1.3699">
        <ele>43</ele>
        <time>2011-10-23T09:16:03Z</time>
      </trkpt>
      <trkpt lat="49.22022" lon="1.37">
        <ele>43</ele>
        <time>2011-10-23T09:16:09Z</time>
      </trkpt>
      <trkpt lat="49.2203" lon="1.37012">
        <ele>43</ele>
        <time>2011-10-23T09:16:15Z</time>
      </trkpt>
      <trkpt lat="49.22038" lon="1.37023">
        <ele>43</ele>
        <time>2011-10-23T09:16:19Z</time>
      </trkpt>
      <trkpt lat="49.22043" lon="1.37034">
        <ele>43</ele>
        <time>2011-10-23T09:16:23Z</time>
      </trkpt>
      <trkpt lat="49.22047" lon="1.37048">
        <ele>37</ele>
        <time>2011-10-23T09:16:30Z</time>
      </trkpt>
      <trkpt lat="49.22049" lon="1.37062">
        <ele>37</ele>
        <time>2011-10-23T09:16:38Z</time>
      </trkpt>
      <trkpt lat="49.22055" lon="1.37076">
        <ele>37</ele>
        <time>2011-10-23T09:16:45Z</time>
      </trkpt>
      <trkpt lat="49.22058" lon="1.37092">
        <ele>37</ele>
        <time>2011-10-23T09:16:51Z</time>
      </trkpt>
      <trkpt lat="49.22062" lon="1.37108">
        <ele>37</ele>
        <time>2011-10-23T09:16:57Z</time>
      </trkpt>
      <trkpt lat="49.22066" lon="1.37122">
        <ele>37</ele>
        <time>2011-10-23T09:17:03Z</time>
      </trkpt>
      <trkpt lat="49.22067" lon="1.37136">
        <ele>37</ele>
        <time>2011-10-23T09:17:09Z</time>
      </trkpt>
      <trkpt lat="49.2207" lon="1.37151">
        <ele>37</ele>
        <time>2011-10-23T09:17:15Z</time>
      </trkpt>
      <trkpt lat="49.22073" lon="1.37166">
        <ele>37</ele>
        <time>2011-10-23T09:17:22Z</time>
      </trkpt>
      <trkpt lat="49.22073" lon="1.3718">
        <ele>37</ele>
        <time>2011-10-23T09:17:29Z</time>
      </trkpt>
      <trkpt lat="49.22079" lon="1.37193">
        <ele>37</ele>
        <time>2011-10-23T09:17:36Z</time>
      </trkpt>
      <trkpt lat="49.22082" lon="1.37206">
        <ele>37</ele>
        <time>2011-10-23T09:17:54Z</time>
      </trkpt>
      <trkpt lat="49.22086" lon="1.3722">
        <ele>29</ele>
        <time>2011-10-23T09:18:37Z</time>
      </trkpt>
      <trkpt lat="49.22089" lon="1.37236">
        <ele>29</ele>
        <time>2011-10-23T09:18:46Z</time>
      </trkpt>
      <trkpt lat="49.22093" lon="1.37249">
        <ele>29</ele>
        <time>2011-10-23T09:18:56Z</time>
      </trkpt>
      <trkpt lat="49.22095" lon="1.37263">
        <ele>29</ele>
        <time>2011-10-23T09:19:04Z</time>
      </trkpt>
      <trkpt lat="49.22099" lon="1.37276">
        <ele>29</ele>
        <time>2011-10-23T09:19:13Z</time>
      </trkpt>
      <trkpt lat="49.22104" lon="1.3729">
        <ele>29</ele>
        <time>2011-10-23T09:19:20Z</time>
      </trkpt>
      <trkpt lat="49.22107" lon="1.37304">
        <ele>29</ele>
        <time>2011-10-23T09:19:26Z</time>
      </trkpt>
      <trkpt lat="49.22112" lon="1.37319">
        <ele>29</ele>
        <time>2011-10-23T09:19:34Z</time>
      </trkpt>
      <trkpt lat="49.22117" lon="1.37332">
        <ele>29</ele>
        <time>2011-10-23T09:19:42Z</time>
      </trkpt>
      <trkpt lat="49.2212" lon="1.37345">
        <ele>29</ele>
        <time>2011-10-23T09:19:50Z</time>
      </trkpt>
      <trkpt lat="49.2212" lon="1.3736">
        <ele>29</ele>
        <time>2011-10-23T09:19:58Z</time>
      </trkpt>
      <trkpt lat="49.22122" lon="1.37374">
        <ele>29</ele>
        <time>2011-10-23T09:20:07Z</time>
      </trkpt>
      <trkpt lat="49.22125" lon="1.37389">
        <ele>29</ele>
        <time>2011-10-23T09:20:14Z</time>
      </trkpt>
      <trkpt lat="49.22125" lon="1.37405">
        <ele>29</ele>
        <time>2011-10-23T09:20:22Z</time>
      </trkpt>
      <trkpt lat="49.22125" lon="1.37419">
        <ele>29</ele>
        <time>2011-10-23T09:20:36Z</time>
      </trkpt>
      <trkpt lat="49.22125" lon="1.37433">
        <ele>29</ele>
        <time>2011-10-23T09:20:42Z</time>
      </trkpt>
      <trkpt lat="49.22127" lon="1.37449">
        <ele>35</ele>
        <time>2011-10-23T09:20:49Z</time>
      </trkpt>
      <trkpt lat="49.22129" lon="1.37463">
        <ele>35</ele>
        <time>2011-10-23T09:20:56Z</time>
      </trkpt>
      <trkpt lat="49.2213" lon="1.37478">
        <ele>35</ele>
        <time>2011-10-23T09:21:04Z</time>
      </trkpt>
      <trkpt lat="49.22127" lon="1.37492">
        <ele>35</ele>
        <time>2011-10-23T09:21:12Z</time>
      </trkpt>
      <trkpt lat="49.22122" lon="1.37505">
        <ele>30</ele>
        <time>2011-10-23T09:21:19Z</time>
      </trkpt>
      <trkpt lat="49.22117" lon="1.37518">
        <ele>30</ele>
        <time>2011-10-23T09:21:25Z</time>
      </trkpt>
      <trkpt lat="49.22112" lon="1.3753">
        <ele>30</ele>
        <time>2011-10-23T09:21:31Z</time>
      </trkpt>
      <trkpt lat="49.22107" lon="1.37542">
        <ele>30</ele>
        <time>2011-10-23T09:21:37Z</time>
      </trkpt>
      <trkpt lat="49.22103" lon="1.37555">
        <ele>30</ele>
        <time>2011-10-23T09:21:44Z</time>
      </trkpt>
      <trkpt lat="49.22102" lon="1.3757">
        <ele>30</ele>
        <time>2011-10-23T09:21:51Z</time>
      </trkpt>
      <trkpt lat="49.22111" lon="1.37578">
        <ele>30</ele>
        <time>2011-10-23T09:21:59Z</time>
      </trkpt>
      <trkpt lat="49.2212" lon="1.37582">
        <ele>30</ele>
        <time>2011-10-23T09:22:05Z</time>
      </trkpt>
      <trkpt lat="49.22129" lon="1.37588">
        <ele>30</ele>
        <time>2011-10-23T09:22:13Z</time>
      </trkpt>
      <trkpt lat="49.22137" lon="1.37594">
        <ele>30</ele>
        <time>2011-10-23T09:22:20Z</time>
      </trkpt>
      <trkpt lat="49.22146" lon="1.37599">
        <ele>30</ele>
        <time>2011-10-23T09:22:29Z</time>
      </trkpt>
      <trkpt lat="49.22155" lon="1.37604">
        <ele>30</ele>
        <time>2011-10-23T09:22:37Z</time>
      </trkpt>
      <trkpt lat="49.22165" lon="1.37608">
        <ele>30</ele>
        <time>2011-10-23T09:22:46Z</time>
      </trkpt>
      <trkpt lat="49.22174" lon="1.37612">
        <ele>30</ele>
        <time>2011-10-23T09:22:56Z</time>
      </trkpt>
      <trkpt lat="49.22183" lon="1.37617">
        <ele>30</ele>
        <time>2011-10-23T09:23:03Z</time>
      </trkpt>
      <trkpt lat="49.22192" lon="1.37621">
        <ele>30</ele>
        <time>2011-10-23T09:23:10Z</time>
      </trkpt>
      <trkpt lat="49.222" lon="1.37613">
        <ele>30</ele>
        <time>2011-10-23T09:23:18Z</time>
      </trkpt>
      <trkpt lat="49.2221" lon="1.37609">
        <ele>30</ele>
        <time>2011-10-23T09:23:26Z</time>
      </trkpt>
      <trkpt lat="49.22219" lon="1.37604">
        <ele>30</ele>
        <time>2011-10-23T09:23:32Z</time>
      </trkpt>
      <trkpt lat="49.22228" lon="1.37599">
        <ele>30</ele>
        <time>2011-10-23T09:23:38Z</time>
      </trkpt>
      <trkpt lat="49.22238" lon="1.37597">
        <ele>30</ele>
        <time>2011-10-23T09:23:45Z</time>
      </trkpt>
      <trkpt lat="49.22247" lon="1.37591">
        <ele>30</ele>
        <time>2011-10-23T09:23:53Z</time>
      </trkpt>
      <trkpt lat="49.22256" lon="1.37584">
        <ele>30</ele>
        <time>2011-10-23T09:24:09Z</time>
      </trkpt>
      <trkpt lat="49.22264" lon="1.37578">
        <ele>30</ele>
        <time>2011-10-23T09:24:15Z</time>
      </trkpt>
      <trkpt lat="49.22273" lon="1.37573">
        <ele>30</ele>
        <time>2011-10-23T09:24:21Z</time>
      </trkpt>
      <trkpt lat="49.22283" lon="1.37569">
        <ele>30</ele>
        <time>2011-10-23T09:24:29Z</time>
      </trkpt>
      <trkpt lat="49.22293" lon="1.37566">
        <ele>30</ele>
        <time>2011-10-23T09:24:35Z</time>
      </trkpt>
      <trkpt lat="49.22302" lon="1.37565">
        <ele>30</ele>
        <time>2011-10-23T09:24:44Z</time>
      </trkpt>
      <trkpt lat="49.22312" lon="1.37564">
        <ele>30</ele>
        <time>2011-10-23T09:24:50Z</time>
      </trkpt>
      <trkpt lat="49.22322" lon="1.37561">
        <ele>30</ele>
        <time>2011-10-23T09:24:57Z</time>
      </trkpt>
      <trkpt lat="49.22331" lon="1.37559">
        <ele>30</ele>
        <time>2011-10-23T09:25:04Z</time>
      </trkpt>
      <trkpt lat="49.22342" lon="1.37555">
        <ele>30</ele>
        <time>2011-10-23T09:25:11Z</time>
      </trkpt>
      <trkpt lat="49.22352" lon="1.37554">
        <ele>30</ele>
        <time>2011-10-23T09:25:18Z</time>
      </trkpt>
      <trkpt lat="49.22362" lon="1.37547">
        <ele>30</ele>
        <time>2011-10-23T09:25:24Z</time>
      </trkpt>
      <trkpt lat="49.22371" lon="1.37546">
        <ele>30</ele>
        <time>2011-10-23T09:25:30Z</time>
      </trkpt>
      <trkpt lat="49.2238" lon="1.37541">
        <ele>30</ele>
        <time>2011-10-23T09:25:38Z</time>
      </trkpt>
      <trkpt lat="49.22391" lon="1.37537">
        <ele>30</ele>
        <time>2011-10-23T09:25:46Z</time>
      </trkpt>
      <trkpt lat="49.224" lon="1.37534">
        <ele>30</ele>
        <time>2011-10-23T09:25:53Z</time>
      </trkpt>
      <trkpt lat="49.22411" lon="1.37531">
        <ele>30</ele>
        <time>2011-10-23T09:25:59Z</time>
      </trkpt>
      <trkpt lat="49.2242" lon="1.37528">
        <ele>30</ele>
        <time>2011-10-23T09:26:05Z</time>
      </trkpt>
      <trkpt lat="49.22429" lon="1.37523">
        <ele>25</ele>
        <time>2011-10-23T09:26:10Z</time>
      </trkpt>
      <trkpt lat="49.22438" lon="1.37519">
        <ele>25</ele>
        <time>2011-10-23T09:26:19Z</time>
      </trkpt>
      <trkpt lat="49.22448" lon="1.37519">
        <ele>25</ele>
        <time>2011-10-23T09:26:27Z</time>
      </trkpt>
      <trkpt lat="49.22457" lon="1.37512">
        <ele>25</ele>
        <time>2011-10-23T09:26:33Z</time>
      </trkpt>
      <trkpt lat="49.22466" lon="1.37507">
        <ele>25</ele>
        <time>2011-10-23T09:26:40Z</time>
      </trkpt>
      <trkpt lat="49.22476" lon="1.37502">
        <ele>25</ele>
        <time>2011-10-23T09:26:46Z</time>
      </trkpt>
      <trkpt lat="49.22485" lon="1.37496">
        <ele>25</ele>
        <time>2011-10-23T09:26:55Z</time>
      </trkpt>
      <trkpt lat="49.22493" lon="1.37502">
        <ele>25</ele>
        <time>2011-10-23T09:27:09Z</time>
      </trkpt>
      <trkpt lat="49.22503" lon="1.37501">
        <ele>25</ele>
        <time>2011-10-23T09:27:16Z</time>
      </trkpt>
      <trkpt lat="49.22512" lon="1.37496">
        <ele>25</ele>
        <time>2011-10-23T09:27:23Z</time>
      </trkpt>
      <trkpt lat="49.22521" lon="1.37492">
        <ele>25</ele>
        <time>2011-10-23T09:27:29Z</time>
      </trkpt>
      <trkpt lat="49.2253" lon="1.37487">
        <ele>25</ele>
        <time>2011-10-23T09:27:35Z</time>
      </trkpt>
      <trkpt lat="49.22539" lon="1.37481">
        <ele>25</ele>
        <time>2011-10-23T09:27:42Z</time>
      </trkpt>
      <trkpt lat="49.22548" lon="1.37482">
        <ele>25</ele>
        <time>2011-10-23T09:27:49Z</time>
      </trkpt>
      <trkpt lat="49.22551" lon="1.37497">
        <ele>25</ele>
        <time>2011-10-23T09:27:57Z</time>
      </trkpt>
      <trkpt lat="49.22552" lon="1.37512">
        <ele>25</ele>
        <time>2011-10-23T09:28:04Z</time>
      </trkpt>
      <trkpt lat="49.22554" lon="1.37527">
        <ele>25</ele>
        <time>2011-10-23T09:28:10Z</time>
      </trkpt>
      <trkpt lat="49.22553" lon="1.37541">
        <ele>25</ele>
        <time>2011-10-23T09:28:45Z</time>
      </trkpt>
      <trkpt lat="49.22555" lon="1.37555">
        <ele>25</ele>
        <time>2011-10-23T09:28:53Z</time>
      </trkpt>
      <trkpt lat="49.22557" lon="1.37572">
        <ele>25</ele>
        <time>2011-10-23T09:29:01Z</time>
      </trkpt>
      <trkpt lat="49.22559" lon="1.37587">
        <ele>25</ele>
        <time>2011-10-23T09:29:09Z</time>
      </trkpt>
      <trkpt lat="49.22561" lon="1.37602">
        <ele>25</ele>
        <time>2011-10-23T09:29:16Z</time>
      </trkpt>
      <trkpt lat="49.22563" lon="1.37617">
        <ele>25</ele>
        <time>2011-10-23T09:29:22Z</time>
      </trkpt>
      <trkpt lat="49.22566" lon="1.37633">
        <ele>25</ele>
        <time>2011-10-23T09:29:29Z</time>
      </trkpt>
      <trkpt lat="49.22567" lon="1.37648">
        <ele>25</ele>
        <time>2011-10-23T09:29:38Z</time>
      </trkpt>
      <trkpt lat="49.22568" lon="1.37663">
        <ele>20</ele>
        <time>2011-10-23T09:29:46Z</time>
      </trkpt>
      <trkpt lat="49.22569" lon="1.37679">
        <ele>20</ele>
        <time>2011-10-23T09:29:54Z</time>
      </trkpt>
      <trkpt lat="49.22572" lon="1.37696">
        <ele>20</ele>
        <time>2011-10-23T09:30:00Z</time>
      </trkpt>
      <trkpt lat="49.22573" lon="1.3771">
        <ele>20</ele>
        <time>2011-10-23T09:30:06Z</time>
      </trkpt>
      <trkpt lat="49.22574" lon="1.37725">
        <ele>20</ele>
        <time>2011-10-23T09:30:13Z</time>
      </trkpt>
      <trkpt lat="49.22572" lon="1.3774">
        <ele>20</ele>
        <time>2011-10-23T09:30:19Z</time>
      </trkpt>
      <trkpt lat="49.22575" lon="1.37755">
        <ele>20</ele>
        <time>2011-10-23T09:30:26Z</time>
      </trkpt>
      <trkpt lat="49.22579" lon="1.37771">
        <ele>14</ele>
        <time>2011-10-23T09:30:32Z</time>
      </trkpt>
      <trkpt lat="49.22581" lon="1.37785">
        <ele>14</ele>
        <time>2011-10-23T09:30:40Z</time>
      </trkpt>
      <trkpt lat="49.22588" lon="1.37795">
        <ele>14</ele>
        <time>2011-10-23T09:30:47Z</time>
      </trkpt>
      <trkpt lat="49.22595" lon="1.37803">
        <ele>14</ele>
        <time>2011-10-23T09:30:53Z</time>
      </trkpt>
      <trkpt lat="49.22602" lon="1.37813">
        <ele>14</ele>
        <time>2011-10-23T09:30:59Z</time>
      </trkpt>
      <trkpt lat="49.22611" lon="1.37822">
        <ele>14</ele>
        <time>2011-10-23T09:31:05Z</time>
      </trkpt>
      <trkpt lat="49.22619" lon="1.37829">
        <ele>14</ele>
        <time>2011-10-23T09:31:13Z</time>
      </trkpt>
      <trkpt lat="49.22626" lon="1.37839">
        <ele>14</ele>
        <time>2011-10-23T09:31:20Z</time>
      </trkpt>
      <trkpt lat="49.22635" lon="1.3785">
        <ele>14</ele>
        <time>2011-10-23T09:31:27Z</time>
      </trkpt>
      <trkpt lat="49.22645" lon="1.37858">
        <ele>14</ele>
        <time>2011-10-23T09:31:33Z</time>
      </trkpt>
      <trkpt lat="49.22652" lon="1.37867">
        <ele>14</ele>
        <time>2011-10-23T09:31:40Z</time>
      </trkpt>
      <trkpt lat="49.22661" lon="1.37876">
        <ele>14</ele>
        <time>2011-10-23T09:31:49Z</time>
      </trkpt>
      <trkpt lat="49.22667" lon="1.37886">
        <ele>14</ele>
        <time>2011-10-23T09:31:56Z</time>
      </trkpt>
      <trkpt lat="49.22675" lon="1.37894">
        <ele>14</ele>
        <time>2011-10-23T09:32:18Z</time>
      </trkpt>
      <trkpt lat="49.2268" lon="1.37907">
        <ele>14</ele>
        <time>2011-10-23T09:32:26Z</time>
      </trkpt>
      <trkpt lat="49.22682" lon="1.37922">
        <ele>14</ele>
        <time>2011-10-23T09:32:37Z</time>
      </trkpt>
      <trkpt lat="49.22682" lon="1.37938">
        <ele>14</ele>
        <time>2011-10-23T09:32:46Z</time>
      </trkpt>
      <trkpt lat="49.22682" lon="1.37954">
        <ele>14</ele>
        <time>2011-10-23T09:32:55Z</time>
      </trkpt>
      <trkpt lat="49.22685" lon="1.37968">
        <ele>14</ele>
        <time>2011-10-23T09:33:01Z</time>
      </trkpt>
      <trkpt lat="49.2269" lon="1.37981">
        <ele>21</ele>
        <time>2011-10-23T09:33:07Z</time>
      </trkpt>
      <trkpt lat="49.22695" lon="1.37993">
        <ele>21</ele>
        <time>2011-10-23T09:33:14Z</time>
      </trkpt>
      <trkpt lat="49.22702" lon="1.38004">
        <ele>21</ele>
        <time>2011-10-23T09:33:22Z</time>
      </trkpt>
      <trkpt lat="49.22708" lon="1.38015">
        <ele>21</ele>
        <time>2011-10-23T09:33:28Z</time>
      </trkpt>
      <trkpt lat="49.22711" lon="1.38031">
        <ele>21</ele>
        <time>2011-10-23T09:33:37Z</time>
      </trkpt>
      <trkpt lat="49.22708" lon="1.38045">
        <ele>21</ele>
        <time>2011-10-23T09:33:48Z</time>
      </trkpt>
      <trkpt lat="49.22702" lon="1.38058">
        <ele>21</ele>
        <time>2011-10-23T09:33:55Z</time>
      </trkpt>
      <trkpt lat="49.22696" lon="1.38068">
        <ele>21</ele>
        <time>2011-10-23T09:34:02Z</time>
      </trkpt>
      <trkpt lat="49.22691" lon="1.38082">
        <ele>21</ele>
        <time>2011-10-23T09:34:10Z</time>
      </trkpt>
      <trkpt lat="49.22685" lon="1.38094">
        <ele>21</ele>
        <time>2011-10-23T09:34:17Z</time>
      </trkpt>
      <trkpt lat="49.22681" lon="1.38107">
        <ele>21</ele>
        <time>2011-10-23T09:34:24Z</time>
      </trkpt>
      <trkpt lat="49.22675" lon="1.38119">
        <ele>21</ele>
        <time>2011-10-23T09:34:32Z</time>
      </trkpt>
      <trkpt lat="49.22669" lon="1.3813">
        <ele>26</ele>
        <time>2011-10-23T09:34:39Z</time>
      </trkpt>
      <trkpt lat="49.22663" lon="1.38145">
        <ele>26</ele>
        <time>2011-10-23T09:34:47Z</time>
      </trkpt>
      <trkpt lat="49.22658" lon="1.38158">
        <ele>26</ele>
        <time>2011-10-23T09:34:53Z</time>
      </trkpt>
      <trkpt lat="49.22653" lon="1.38171">
        <ele>21</ele>
        <time>2011-10-23T09:35:00Z</time>
      </trkpt>
      <trkpt lat="49.22646" lon="1.38184">
        <ele>21</ele>
        <time>2011-10-23T09:35:07Z</time>
      </trkpt>
      <trkpt lat="49.22642" lon="1.38197">
        <ele>21</ele>
        <time>2011-10-23T09:35:16Z</time>
      </trkpt>
      <trkpt lat="49.22637" lon="1.38209">
        <ele>21</ele>
        <time>2011-10-23T09:35:22Z</time>
      </trkpt>
      <trkpt lat="49.22633" lon="1.38221">
        <ele>15</ele>
        <time>2011-10-23T09:35:29Z</time>
      </trkpt>
      <trkpt lat="49.22627" lon="1.38234">
        <ele>15</ele>
        <time>2011-10-23T09:35:36Z</time>
      </trkpt>
      <trkpt lat="49.22622" lon="1.38245">
        <ele>15</ele>
        <time>2011-10-23T09:35:42Z</time>
      </trkpt>
      <trkpt lat="49.22617" lon="1.38258">
        <ele>15</ele>
        <time>2011-10-23T09:35:48Z</time>
      </trkpt>
      <trkpt lat="49.22611" lon="1.3827">
        <ele>15</ele>
        <time>2011-10-23T09:35:56Z</time>
      </trkpt>
      <trkpt lat="49.22605" lon="1.3828">
        <ele>15</ele>
        <time>2011-10-23T09:36:03Z</time>
      </trkpt>
      <trkpt lat="49.22601" lon="1.38294">
        <ele>15</ele>
        <time>2011-10-23T09:36:09Z</time>
      </trkpt>
      <trkpt lat="49.22596" lon="1.38306">
        <ele>15</ele>
        <time>2011-10-23T09:36:16Z</time>
      </trkpt>
      <trkpt lat="49.22591" lon="1.38318">
        <ele>9</ele>
        <time>2011-10-23T09:36:23Z</time>
      </trkpt>
      <trkpt lat="49.22589" lon="1.38333">
        <ele>9</ele>
        <time>2011-10-23T09:36:33Z</time>
      </trkpt>
      <trkpt lat="49.22593" lon="1.38347">
        <ele>9</ele>
        <time>2011-10-23T09:36:38Z</time>
      </trkpt>
      <trkpt lat="49.22598" lon="1.38359">
        <ele>14</ele>
        <time>2011-10-23T09:36:47Z</time>
      </trkpt>
      <trkpt lat="49.22606" lon="1.38368">
        <ele>14</ele>
        <time>2011-10-23T09:36:54Z</time>
      </trkpt>
      <trkpt lat="49.22615" lon="1.38375">
        <ele>14</ele>
        <time>2011-10-23T09:37:01Z</time>
      </trkpt>
      <trkpt lat="49.22622" lon="1.38384">
        <ele>14</ele>
        <time>2011-10-23T09:37:08Z</time>
      </trkpt>
      <trkpt lat="49.2263" lon="1.38394">
        <ele>14</ele>
        <time>2011-10-23T09:37:16Z</time>
      </trkpt>
      <trkpt lat="49.22638" lon="1.38402">
        <ele>14</ele>
        <time>2011-10-23T09:37:23Z</time>
      </trkpt>
      <trkpt lat="49.22646" lon="1.38411">
        <ele>14</ele>
        <time>2011-10-23T09:37:31Z</time>
      </trkpt>
      <trkpt lat="49.22654" lon="1.3842">
        <ele>14</ele>
        <time>2011-10-23T09:37:37Z</time>
      </trkpt>
      <trkpt lat="49.22662" lon="1.38429">
        <ele>14</ele>
        <time>2011-10-23T09:37:45Z</time>
      </trkpt>
      <trkpt lat="49.2267" lon="1.38437">
        <ele>14</ele>
        <time>2011-10-23T09:37:51Z</time>
      </trkpt>
      <trkpt lat="49.22678" lon="1.38444">
        <ele>14</ele>
        <time>2011-10-23T09:37:58Z</time>
      </trkpt>
      <trkpt lat="49.22686" lon="1.38454">
        <ele>14</ele>
        <time>2011-10-23T09:38:07Z</time>
      </trkpt>
      <trkpt lat="49.22693" lon="1.38463">
        <ele>14</ele>
        <time>2011-10-23T09:38:14Z</time>
      </trkpt>
      <trkpt lat="49.22699" lon="1.38474">
        <ele>20</ele>
        <time>2011-10-23T09:38:21Z</time>
      </trkpt>
      <trkpt lat="49.22708" lon="1.38481">
        <ele>20</ele>
        <time>2011-10-23T09:38:28Z</time>
      </trkpt>
      <trkpt lat="49.22716" lon="1.38487">
        <ele>20</ele>
        <time>2011-10-23T09:38:34Z</time>
      </trkpt>
      <trkpt lat="49.22725" lon="1.38493">
        <ele>20</ele>
        <time>2011-10-23T09:38:41Z</time>
      </trkpt>
      <trkpt lat="49.22734" lon="1.38502">
        <ele>20</ele>
        <time>2011-10-23T09:38:47Z</time>
      </trkpt>
      <trkpt lat="49.22734" lon="1.38517">
        <ele>14</ele>
        <time>2011-10-23T09:39:05Z</time>
      </trkpt>
      <trkpt lat="49.22728" lon="1.38528">
        <ele>14</ele>
        <time>2011-10-23T09:39:11Z</time>
      </trkpt>
      <trkpt lat="49.22728" lon="1.38543">
        <ele>14</ele>
        <time>2011-10-23T09:39:20Z</time>
      </trkpt>
      <trkpt lat="49.22734" lon="1.38555">
        <ele>14</ele>
        <time>2011-10-23T09:39:29Z</time>
      </trkpt>
      <trkpt lat="49.2274" lon="1.38569">
        <ele>14</ele>
        <time>2011-10-23T09:39:37Z</time>
      </trkpt>
      <trkpt lat="49.22745" lon="1.38582">
        <ele>14</ele>
        <time>2011-10-23T09:39:42Z</time>
      </trkpt>
      <trkpt lat="49.22751" lon="1.38596">
        <ele>14</ele>
        <time>2011-10-23T09:39:48Z</time>
      </trkpt>
      <trkpt lat="49.22756" lon="1.38609">
        <ele>19</ele>
        <time>2011-10-23T09:39:55Z</time>
      </trkpt>
      <trkpt lat="49.22764" lon="1.38615">
        <ele>19</ele>
        <time>2011-10-23T09:40:03Z</time>
      </trkpt>
      <trkpt lat="49.22774" lon="1.38611">
        <ele>19</ele>
        <time>2011-10-23T09:40:12Z</time>
      </trkpt>
      <trkpt lat="49.22779" lon="1.38599">
        <ele>19</ele>
        <time>2011-10-23T09:40:20Z</time>
      </trkpt>
      <trkpt lat="49.22791" lon="1.38599">
        <ele>19</ele>
        <time>2011-10-23T09:40:26Z</time>
      </trkpt>
      <trkpt lat="49.228" lon="1.38603">
        <ele>19</ele>
        <time>2011-10-23T09:40:31Z</time>
      </trkpt>
      <trkpt lat="49.22807" lon="1.38613">
        <ele>19</ele>
        <time>2011-10-23T09:40:37Z</time>
      </trkpt>
      <trkpt lat="49.22815" lon="1.38624">
        <ele>25</ele>
        <time>2011-10-23T09:40:45Z</time>
      </trkpt>
      <trkpt lat="49.22824" lon="1.38631">
        <ele>25</ele>
        <time>2011-10-23T09:40:50Z</time>
      </trkpt>
      <trkpt lat="49.22832" lon="1.3864">
        <ele>25</ele>
        <time>2011-10-23T09:40:55Z</time>
      </trkpt>
      <trkpt lat="49.22839" lon="1.3865">
        <ele>25</ele>
        <time>2011-10-23T09:41:03Z</time>
      </trkpt>
      <trkpt lat="49.22849" lon="1.38646">
        <ele>25</ele>
        <time>2011-10-23T09:41:10Z</time>
      </trkpt>
      <trkpt lat="49.22858" lon="1.38651">
        <ele>25</ele>
        <time>2011-10-23T09:41:15Z</time>
      </trkpt>
      <trkpt lat="49.22865" lon="1.3866">
        <ele>25</ele>
        <time>2011-10-23T09:41:20Z</time>
      </trkpt>
      <trkpt lat="49.22872" lon="1.38669">
        <ele>19</ele>
        <time>2011-10-23T09:41:25Z</time>
      </trkpt>
      <trkpt lat="49.2288" lon="1.38678">
        <ele>19</ele>
        <time>2011-10-23T09:41:31Z</time>
      </trkpt>
      <trkpt lat="49.22889" lon="1.38686">
        <ele>19</ele>
        <time>2011-10-23T09:41:39Z</time>
      </trkpt>
      <trkpt lat="49.22898" lon="1.38691">
        <ele>19</ele>
        <time>2011-10-23T09:41:47Z</time>
      </trkpt>
      <trkpt lat="49.22906" lon="1.38695">
        <ele>19</ele>
        <time>2011-10-23T09:41:53Z</time>
      </trkpt>
      <trkpt lat="49.22915" lon="1.38701">
        <ele>19</ele>
        <time>2011-10-23T09:41:58Z</time>
      </trkpt>
      <trkpt lat="49.22923" lon="1.38709">
        <ele>19</ele>
        <time>2011-10-23T09:42:06Z</time>
      </trkpt>
      <trkpt lat="49.22931" lon="1.38718">
        <ele>19</ele>
        <time>2011-10-23T09:42:12Z</time>
      </trkpt>
      <trkpt lat="49.2294" lon="1.38724">
        <ele>19</ele>
        <time>2011-10-23T09:42:18Z</time>
      </trkpt>
      <trkpt lat="49.22949" lon="1.38732">
        <ele>19</ele>
        <time>2011-10-23T09:42:24Z</time>
      </trkpt>
      <trkpt lat="49.22956" lon="1.38741">
        <ele>19</ele>
        <time>2011-10-23T09:42:29Z</time>
      </trkpt>
      <trkpt lat="49.22965" lon="1.38749">
        <ele>14</ele>
        <time>2011-10-23T09:42:35Z</time>
      </trkpt>
      <trkpt lat="49.22975" lon="1.38757">
        <ele>14</ele>
        <time>2011-10-23T09:42:41Z</time>
      </trkpt>
      <trkpt lat="49.22982" lon="1.38767">
        <ele>14</ele>
        <time>2011-10-23T09:42:48Z</time>
      </trkpt>
      <trkpt lat="49.22991" lon="1.38775">
        <ele>14</ele>
        <time>2011-10-23T09:42:54Z</time>
      </trkpt>
      <trkpt lat="49.22999" lon="1.38783">
        <ele>14</ele>
        <time>2011-10-23T09:42:58Z</time>
      </trkpt>
      <trkpt lat="49.23009" lon="1.38788">
        <ele>14</ele>
        <time>2011-10-23T09:43:06Z</time>
      </trkpt>
      <trkpt lat="49.23019" lon="1.38794">
        <ele>14</ele>
        <time>2011-10-23T09:43:13Z</time>
      </trkpt>
      <trkpt lat="49.23026" lon="1.38804">
        <ele>14</ele>
        <time>2011-10-23T09:43:18Z</time>
      </trkpt>
      <trkpt lat="49.23032" lon="1.38814">
        <ele>14</ele>
        <time>2011-10-23T09:43:23Z</time>
      </trkpt>
      <trkpt lat="49.23042" lon="1.38818">
        <ele>14</ele>
        <time>2011-10-23T09:43:29Z</time>
      </trkpt>
      <trkpt lat="49.2305" lon="1.38826">
        <ele>8</ele>
        <time>2011-10-23T09:43:34Z</time>
      </trkpt>
      <trkpt lat="49.23059" lon="1.3883">
        <ele>8</ele>
        <time>2011-10-23T09:43:45Z</time>
      </trkpt>
      <trkpt lat="49.23069" lon="1.38836">
        <ele>8</ele>
        <time>2011-10-23T09:43:50Z</time>
      </trkpt>
      <trkpt lat="49.23078" lon="1.3884">
        <ele>8</ele>
        <time>2011-10-23T09:43:56Z</time>
      </trkpt>
      <trkpt lat="49.23086" lon="1.38845">
        <ele>8</ele>
        <time>2011-10-23T09:44:02Z</time>
      </trkpt>
      <trkpt lat="49.23095" lon="1.38853">
        <ele>8</ele>
        <time>2011-10-23T09:44:10Z</time>
      </trkpt>
      <trkpt lat="49.23104" lon="1.3886">
        <ele>8</ele>
        <time>2011-10-23T09:44:18Z</time>
      </trkpt>
      <trkpt lat="49.23114" lon="1.38863">
        <ele>8</ele>
        <time>2011-10-23T09:44:24Z</time>
      </trkpt>
      <trkpt lat="49.23124" lon="1.38868">
        <ele>8</ele>
        <time>2011-10-23T09:44:31Z</time>
      </trkpt>
      <trkpt lat="49.23133" lon="1.38873">
        <ele>8</ele>
        <time>2011-10-23T09:44:38Z</time>
      </trkpt>
      <trkpt lat="49.23142" lon="1.3888">
        <ele>8</ele>
        <time>2011-10-23T09:44:45Z</time>
      </trkpt>
      <trkpt lat="49.23151" lon="1.38885">
        <ele>8</ele>
        <time>2011-10-23T09:44:52Z</time>
      </trkpt>
      <trkpt lat="49.23159" lon="1.38889">
        <ele>8</ele>
        <time>2011-10-23T09:44:59Z</time>
      </trkpt>
      <trkpt lat="49.23169" lon="1.38893">
        <ele>15</ele>
        <time>2011-10-23T09:45:05Z</time>
      </trkpt>
      <trkpt lat="49.23178" lon="1.38897">
        <ele>15</ele>
        <time>2011-10-23T09:45:11Z</time>
      </trkpt>
      <trkpt lat="49.23186" lon="1.38906">
        <ele>15</ele>
        <time>2011-10-23T09:45:17Z</time>
      </trkpt>
      <trkpt lat="49.23195" lon="1.38915">
        <ele>15</ele>
        <time>2011-10-23T09:45:22Z</time>
      </trkpt>
      <trkpt lat="49.23204" lon="1.38921">
        <ele>15</ele>
        <time>2011-10-23T09:45:26Z</time>
      </trkpt>
      <trkpt lat="49.23212" lon="1.38929">
        <ele>15</ele>
        <time>2011-10-23T09:45:30Z</time>
      </trkpt>
      <trkpt lat="49.23221" lon="1.38938">
        <ele>15</ele>
        <time>2011-10-23T09:45:34Z</time>
      </trkpt>
      <trkpt lat="49.23229" lon="1.38945">
        <ele>15</ele>
        <time>2011-10-23T09:45:45Z</time>
      </trkpt>
      <trkpt lat="49.23239" lon="1.38944">
        <ele>15</ele>
        <time>2011-10-23T09:45:53Z</time>
      </trkpt>
      <trkpt lat="49.23248" lon="1.3895">
        <ele>15</ele>
        <time>2011-10-23T09:46:00Z</time>
      </trkpt>
      <trkpt lat="49.23257" lon="1.38956">
        <ele>15</ele>
        <time>2011-10-23T09:46:08Z</time>
      </trkpt>
      <trkpt lat="49.23265" lon="1.3896">
        <ele>15</ele>
        <time>2011-10-23T09:46:13Z</time>
      </trkpt>
      <trkpt lat="49.23273" lon="1.38969">
        <ele>15</ele>
        <time>2011-10-23T09:46:20Z</time>
      </trkpt>
      <trkpt lat="49.23282" lon="1.38975">
        <ele>15</ele>
        <time>2011-10-23T09:46:32Z</time>
      </trkpt>
      <trkpt lat="49.23289" lon="1.38983">
        <ele>15</ele>
        <time>2011-10-23T09:46:42Z</time>
      </trkpt>
      <trkpt lat="49.23298" lon="1.38979">
        <ele>15</ele>
        <time>2011-10-23T09:48:03Z</time>
      </trkpt>
      <trkpt lat="49.23308" lon="1.38979">
        <ele>15</ele>
        <time>2011-10-23T09:48:11Z</time>
      </trkpt>
      <trkpt lat="49.23314" lon="1.38992">
        <ele>15</ele>
        <time>2011-10-23T09:48:18Z</time>
      </trkpt>
      <trkpt lat="49.23316" lon="1.39005">
        <ele>15</ele>
        <time>2011-10-23T09:48:26Z</time>
      </trkpt>
      <trkpt lat="49.23317" lon="1.39021">
        <ele>20</ele>
        <time>2011-10-23T09:48:33Z</time>
      </trkpt>
      <trkpt lat="49.23318" lon="1.39035">
        <ele>20</ele>
        <time>2011-10-23T09:48:42Z</time>
      </trkpt>
      <trkpt lat="49.23318" lon="1.39051">
        <ele>20</ele>
        <time>2011-10-23T09:48:48Z</time>
      </trkpt>
      <trkpt lat="49.23316" lon="1.39066">
        <ele>20</ele>
        <time>2011-10-23T09:48:58Z</time>
      </trkpt>
      <trkpt lat="49.23313" lon="1.39081">
        <ele>20</ele>
        <time>2011-10-23T09:49:04Z</time>
      </trkpt>
      <trkpt lat="49.23312" lon="1.39097">
        <ele>20</ele>
        <time>2011-10-23T09:49:11Z</time>
      </trkpt>
      <trkpt lat="49.23313" lon="1.39111">
        <ele>20</ele>
        <time>2011-10-23T09:49:18Z</time>
      </trkpt>
      <trkpt lat="49.23312" lon="1.39128">
        <ele>20</ele>
        <time>2011-10-23T09:49:24Z</time>
      </trkpt>
      <trkpt lat="49.23311" lon="1.39142">
        <ele>20</ele>
        <time>2011-10-23T09:49:31Z</time>
      </trkpt>
      <trkpt lat="49.23312" lon="1.39156">
        <ele>20</ele>
        <time>2011-10-23T09:49:40Z</time>
      </trkpt>
      <trkpt lat="49.23311" lon="1.39172">
        <ele>20</ele>
        <time>2011-10-23T09:49:47Z</time>
      </trkpt>
      <trkpt lat="49.23311" lon="1.39187">
        <ele>12</ele>
        <time>2011-10-23T09:49:55Z</time>
      </trkpt>
      <trkpt lat="49.23308" lon="1.392">
        <ele>12</ele>
        <time>2011-10-23T09:50:02Z</time>
      </trkpt>
      <trkpt lat="49.23309" lon="1.39216">
        <ele>12</ele>
        <time>2011-10-23T09:50:10Z</time>
      </trkpt>
      <trkpt lat="49.23311" lon="1.3923">
        <ele>18</ele>
        <time>2011-10-23T09:50:18Z</time>
      </trkpt>
      <trkpt lat="49.23317" lon="1.39241">
        <ele>18</ele>
        <time>2011-10-23T09:50:25Z</time>
      </trkpt>
      <trkpt lat="49.2332" lon="1.39255">
        <ele>18</ele>
        <time>2011-10-23T09:50:32Z</time>
      </trkpt>
      <trkpt lat="49.23322" lon="1.3927">
        <ele>24</ele>
        <time>2011-10-23T09:50:42Z</time>
      </trkpt>
      <trkpt lat="49.23323" lon="1.39286">
        <ele>24</ele>
        <time>2011-10-23T09:50:50Z</time>
      </trkpt>
      <trkpt lat="49.23325" lon="1.393">
        <ele>24</ele>
        <time>2011-10-23T09:51:00Z</time>
      </trkpt>
      <trkpt lat="49.23326" lon="1.39315">
        <ele>24</ele>
        <time>2011-10-23T09:51:09Z</time>
      </trkpt>
      <trkpt lat="49.23326" lon="1.3933">
        <ele>24</ele>
        <time>2011-10-23T09:51:16Z</time>
      </trkpt>
      <trkpt lat="49.23328" lon="1.39345">
        <ele>24</ele>
        <time>2011-10-23T09:51:23Z</time>
      </trkpt>
      <trkpt lat="49.23325" lon="1.3936">
        <ele>24</ele>
        <time>2011-10-23T09:51:30Z</time>
      </trkpt>
      <trkpt lat="49.23324" lon="1.39375">
        <ele>24</ele>
        <time>2011-10-23T09:51:36Z</time>
      </trkpt>
      <trkpt lat="49.23328" lon="1.39389">
        <ele>24</ele>
        <time>2011-10-23T09:51:49Z</time>
      </trkpt>
      <trkpt lat="49.23326" lon="1.39405">
        <ele>24</ele>
        <time>2011-10-23T09:51:56Z</time>
      </trkpt>
      <trkpt lat="49.23326" lon="1.39419">
        <ele>24</ele>
        <time>2011-10-23T09:52:04Z</time>
      </trkpt>
      <trkpt lat="49.23322" lon="1.39435">
        <ele>24</ele>
        <time>2011-10-23T09:52:11Z</time>
      </trkpt>
      <trkpt lat="49.2332" lon="1.39449">
        <ele>31</ele>
        <time>2011-10-23T09:52:18Z</time>
      </trkpt>
      <trkpt lat="49.23321" lon="1.39464">
        <ele>31</ele>
        <time>2011-10-23T09:52:25Z</time>
      </trkpt>
      <trkpt lat="49.23321" lon="1.39479">
        <ele>38</ele>
        <time>2011-10-23T09:52:33Z</time>
      </trkpt>
      <trkpt lat="49.23324" lon="1.39494">
        <ele>38</ele>
        <time>2011-10-23T09:52:42Z</time>
      </trkpt>
      <trkpt lat="49.23332" lon="1.39502">
        <ele>29</ele>
        <time>2011-10-23T09:52:49Z</time>
      </trkpt>
      <trkpt lat="49.23339" lon="1.39513">
        <ele>29</ele>
        <time>2011-10-23T09:52:57Z</time>
      </trkpt>
      <trkpt lat="49.23346" lon="1.39522">
        <ele>29</ele>
        <time>2011-10-23T09:53:04Z</time>
      </trkpt>
      <trkpt lat="49.23351" lon="1.39534">
        <ele>29</ele>
        <time>2011-10-23T09:53:11Z</time>
      </trkpt>
      <trkpt lat="49.23353" lon="1.39548">
        <ele>35</ele>
        <time>2011-10-23T09:53:17Z</time>
      </trkpt>
      <trkpt lat="49.23355" lon="1.39562">
        <ele>35</ele>
        <time>2011-10-23T09:53:24Z</time>
      </trkpt>
      <trkpt lat="49.2336" lon="1.39576">
        <ele>41</ele>
        <time>2011-10-23T09:53:32Z</time>
      </trkpt>
      <trkpt lat="49.23365" lon="1.39587">
        <ele>35</ele>
        <time>2011-10-23T09:53:40Z</time>
      </trkpt>
      <trkpt lat="49.23372" lon="1.39598">
        <ele>35</ele>
        <time>2011-10-23T09:53:49Z</time>
      </trkpt>
      <trkpt lat="49.2338" lon="1.39607">
        <ele>30</ele>
        <time>2011-10-23T09:53:58Z</time>
      </trkpt>
      <trkpt lat="49.23387" lon="1.39617">
        <ele>30</ele>
        <time>2011-10-23T09:54:05Z</time>
      </trkpt>
      <trkpt lat="49.23392" lon="1.3963">
        <ele>30</ele>
        <time>2011-10-23T09:54:13Z</time>
      </trkpt>
      <trkpt lat="49.23395" lon="1.39643">
        <ele>25</ele>
        <time>2011-10-23T09:54:19Z</time>
      </trkpt>
      <trkpt lat="49.23401" lon="1.39655">
        <ele>25</ele>
        <time>2011-10-23T09:54:26Z</time>
      </trkpt>
      <trkpt lat="49.23407" lon="1.39666">
        <ele>25</ele>
        <time>2011-10-23T09:54:34Z</time>
      </trkpt>
      <trkpt lat="49.23415" lon="1.39675">
        <ele>19</ele>
        <time>2011-10-23T09:54:45Z</time>
      </trkpt>
      <trkpt lat="49.23422" lon="1.39684">
        <ele>19</ele>
        <time>2011-10-23T09:54:51Z</time>
      </trkpt>
      <trkpt lat="49.23429" lon="1.39694">
        <ele>19</ele>
        <time>2011-10-23T09:55:00Z</time>
      </trkpt>
      <trkpt lat="49.23438" lon="1.39702">
        <ele>19</ele>
        <time>2011-10-23T09:55:06Z</time>
      </trkpt>
      <trkpt lat="49.23446" lon="1.39711">
        <ele>19</ele>
        <time>2011-10-23T09:55:15Z</time>
      </trkpt>
      <trkpt lat="49.23454" lon="1.39717">
        <ele>19</ele>
        <time>2011-10-23T09:55:26Z</time>
      </trkpt>
      <trkpt lat="49.23462" lon="1.39727">
        <ele>19</ele>
        <time>2011-10-23T09:55:33Z</time>
      </trkpt>
      <trkpt lat="49.23469" lon="1.39735">
        <ele>26</ele>
        <time>2011-10-23T09:55:40Z</time>
      </trkpt>
      <trkpt lat="49.23479" lon="1.39741">
        <ele>26</ele>
        <time>2011-10-23T09:55:46Z</time>
      </trkpt>
      <trkpt lat="49.23489" lon="1.39743">
        <ele>26</ele>
        <time>2011-10-23T09:55:53Z</time>
      </trkpt>
      <trkpt lat="49.23497" lon="1.39751">
        <ele>26</ele>
        <time>2011-10-23T09:56:01Z</time>
      </trkpt>
      <trkpt lat="49.23505" lon="1.39757">
        <ele>26</ele>
        <time>2011-10-23T09:56:07Z</time>
      </trkpt>
      <trkpt lat="49.23514" lon="1.39764">
        <ele>26</ele>
        <time>2011-10-23T09:56:15Z</time>
      </trkpt>
      <trkpt lat="49.23524" lon="1.39765">
        <ele>26</ele>
        <time>2011-10-23T09:56:23Z</time>
      </trkpt>
      <trkpt lat="49.23533" lon="1.39772">
        <ele>26</ele>
        <time>2011-10-23T09:56:30Z</time>
      </trkpt>
      <trkpt lat="49.23542" lon="1.39778">
        <ele>26</ele>
        <time>2011-10-23T09:56:39Z</time>
      </trkpt>
      <trkpt lat="49.23552" lon="1.3978">
        <ele>26</ele>
        <time>2011-10-23T09:56:46Z</time>
      </trkpt>
      <trkpt lat="49.23559" lon="1.3979">
        <ele>26</ele>
        <time>2011-10-23T09:56:54Z</time>
      </trkpt>
      <trkpt lat="49.23569" lon="1.39789">
        <ele>21</ele>
        <time>2011-10-23T09:57:05Z</time>
      </trkpt>
      <trkpt lat="49.23578" lon="1.39784">
        <ele>21</ele>
        <time>2011-10-23T09:57:11Z</time>
      </trkpt>
      <trkpt lat="49.23588" lon="1.39783">
        <ele>15</ele>
        <time>2011-10-23T09:57:20Z</time>
      </trkpt>
      <trkpt lat="49.23597" lon="1.3978">
        <ele>15</ele>
        <time>2011-10-23T09:57:28Z</time>
      </trkpt>
      <trkpt lat="49.23606" lon="1.39783">
        <ele>15</ele>
        <time>2011-10-23T09:57:35Z</time>
      </trkpt>
      <trkpt lat="49.23615" lon="1.3978">
        <ele>15</ele>
        <time>2011-10-23T09:57:42Z</time>
      </trkpt>
      <trkpt lat="49.23619" lon="1.39767">
        <ele>15</ele>
        <time>2011-10-23T09:57:54Z</time>
      </trkpt>
      <trkpt lat="49.23621" lon="1.39753">
        <ele>24</ele>
        <time>2011-10-23T09:58:06Z</time>
      </trkpt>
      <trkpt lat="49.23621" lon="1.39738">
        <ele>24</ele>
        <time>2011-10-23T09:58:14Z</time>
      </trkpt>
      <trkpt lat="49.23617" lon="1.39724">
        <ele>24</ele>
        <time>2011-10-23T09:58:20Z</time>
      </trkpt>
      <trkpt lat="49.23612" lon="1.39711">
        <ele>24</ele>
        <time>2011-10-23T09:58:27Z</time>
      </trkpt>
      <trkpt lat="49.23608" lon="1.39697">
        <ele>17</ele>
        <time>2011-10-23T09:58:34Z</time>
      </trkpt>
      <trkpt lat="49.23604" lon="1.39684">
        <ele>17</ele>
        <time>2011-10-23T09:58:42Z</time>
      </trkpt>
      <trkpt lat="49.23597" lon="1.39674">
        <ele>17</ele>
        <time>2011-10-23T09:58:51Z</time>
      </trkpt>
      <trkpt lat="49.2359" lon="1.39665">
        <ele>17</ele>
        <time>2011-10-23T09:59:00Z</time>
      </trkpt>
      <trkpt lat="49.23594" lon="1.39651">
        <ele>17</ele>
        <time>2011-10-23T09:59:08Z</time>
      </trkpt>
      <trkpt lat="49.23603" lon="1.39652">
        <ele>17</ele>
        <time>2011-10-23T09:59:17Z</time>
      </trkpt>
      <trkpt lat="49.23611" lon="1.3966">
        <ele>17</ele>
        <time>2011-10-23T09:59:25Z</time>
      </trkpt>
      <trkpt lat="49.23618" lon="1.3967">
        <ele>17</ele>
        <time>2011-10-23T09:59:33Z</time>
      </trkpt>
      <trkpt lat="49.23625" lon="1.39679">
        <ele>17</ele>
        <time>2011-10-23T09:59:40Z</time>
      </trkpt>
      <trkpt lat="49.23631" lon="1.3969">
        <ele>23</ele>
        <time>2011-10-23T09:59:47Z</time>
      </trkpt>
      <trkpt lat="49.23634" lon="1.39703">
        <ele>23</ele>
        <time>2011-10-23T09:59:55Z</time>
      </trkpt>
      <trkpt lat="49.23637" lon="1.39717">
        <ele>23</ele>
        <time>2011-10-23T10:00:03Z</time>
      </trkpt>
      <trkpt lat="49.23639" lon="1.39731">
        <ele>23</ele>
        <time>2011-10-23T10:00:10Z</time>
      </trkpt>
      <trkpt lat="49.23641" lon="1.39746">
        <ele>23</ele>
        <time>2011-10-23T10:00:19Z</time>
      </trkpt>
      <trkpt lat="49.23645" lon="1.39761">
        <ele>23</ele>
        <time>2011-10-23T10:00:28Z</time>
      </trkpt>
      <trkpt lat="49.23645" lon="1.39778">
        <ele>23</ele>
        <time>2011-10-23T10:00:38Z</time>
      </trkpt>
      <trkpt lat="49.23649" lon="1.39791">
        <ele>23</ele>
        <time>2011-10-23T10:00:45Z</time>
      </trkpt>
      <trkpt lat="49.23652" lon="1.39806">
        <ele>23</ele>
        <time>2011-10-23T10:00:54Z</time>
      </trkpt>
      <trkpt lat="49.23655" lon="1.3982">
        <ele>23</ele>
        <time>2011-10-23T10:01:02Z</time>
      </trkpt>
      <trkpt lat="49.23658" lon="1.39834">
        <ele>23</ele>
        <time>2011-10-23T10:01:09Z</time>
      </trkpt>
      <trkpt lat="49.23659" lon="1.39848">
        <ele>23</ele>
        <time>2011-10-23T10:01:17Z</time>
      </trkpt>
      <trkpt lat="49.23661" lon="1.39862">
        <ele>23</ele>
        <time>2011-10-23T10:01:23Z</time>
      </trkpt>
      <trkpt lat="49.23664" lon="1.39877">
        <ele>23</ele>
        <time>2011-10-23T10:01:30Z</time>
      </trkpt>
      <trkpt lat="49.23668" lon="1.39892">
        <ele>23</ele>
        <time>2011-10-23T10:01:37Z</time>
      </trkpt>
      <trkpt lat="49.2367" lon="1.39907">
        <ele>23</ele>
        <time>2011-10-23T10:01:46Z</time>
      </trkpt>
      <trkpt lat="49.23671" lon="1.39922">
        <ele>23</ele>
        <time>2011-10-23T10:01:57Z</time>
      </trkpt>
      <trkpt lat="49.23673" lon="1.39937">
        <ele>23</ele>
        <time>2011-10-23T10:02:04Z</time>
      </trkpt>
      <trkpt lat="49.23675" lon="1.39953">
        <ele>23</ele>
        <time>2011-10-23T10:02:12Z</time>
      </trkpt>
      <trkpt lat="49.23677" lon="1.39967">
        <ele>23</ele>
        <time>2011-10-23T10:02:18Z</time>
      </trkpt>
      <trkpt lat="49.23679" lon="1.39981">
        <ele>23</ele>
        <time>2011-10-23T10:02:26Z</time>
      </trkpt>
      <trkpt lat="49.23682" lon="1.39994">
        <ele>23</ele>
        <time>2011-10-23T10:02:32Z</time>
      </trkpt>
      <trkpt lat="49.23685" lon="1.40009">
        <ele>23</ele>
        <time>2011-10-23T10:02:38Z</time>
      </trkpt>
      <trkpt lat="49.23686" lon="1.40023">
        <ele>17</ele>
        <time>2011-10-23T10:02:45Z</time>
      </trkpt>
      <trkpt lat="49.23688" lon="1.40038">
        <ele>17</ele>
        <time>2011-10-23T10:02:53Z</time>
      </trkpt>
      <trkpt lat="49.23691" lon="1.40052">
        <ele>17</ele>
        <time>2011-10-23T10:03:01Z</time>
      </trkpt>
      <trkpt lat="49.23695" lon="1.40065">
        <ele>17</ele>
        <time>2011-10-23T10:03:08Z</time>
      </trkpt>
      <trkpt lat="49.23697" lon="1.40079">
        <ele>17</ele>
        <time>2011-10-23T10:03:16Z</time>
      </trkpt>
      <trkpt lat="49.23699" lon="1.40093">
        <ele>17</ele>
        <time>2011-10-23T10:03:24Z</time>
      </trkpt>
      <trkpt lat="49.23706" lon="1.40105">
        <ele>17</ele>
        <time>2011-10-23T10:03:31Z</time>
      </trkpt>
      <trkpt lat="49.23711" lon="1.40118">
        <ele>17</ele>
        <time>2011-10-23T10:03:40Z</time>
      </trkpt>
      <trkpt lat="49.23718" lon="1.40127">
        <ele>17</ele>
        <time>2011-10-23T10:03:50Z</time>
      </trkpt>
      <trkpt lat="49.23727" lon="1.40129">
        <ele>22</ele>
        <time>2011-10-23T10:03:57Z</time>
      </trkpt>
      <trkpt lat="49.23737" lon="1.40128">
        <ele>22</ele>
        <time>2011-10-23T10:04:04Z</time>
      </trkpt>
      <trkpt lat="49.23746" lon="1.40124">
        <ele>22</ele>
        <time>2011-10-23T10:04:11Z</time>
      </trkpt>
      <trkpt lat="49.23755" lon="1.40117">
        <ele>22</ele>
        <time>2011-10-23T10:04:19Z</time>
      </trkpt>
      <trkpt lat="49.23763" lon="1.40108">
        <ele>22</ele>
        <time>2011-10-23T10:04:26Z</time>
      </trkpt>
      <trkpt lat="49.23772" lon="1.40104">
        <ele>22</ele>
        <time>2011-10-23T10:04:33Z</time>
      </trkpt>
      <trkpt lat="49.23781" lon="1.401">
        <ele>22</ele>
        <time>2011-10-23T10:04:40Z</time>
      </trkpt>
      <trkpt lat="49.23791" lon="1.40097">
        <ele>22</ele>
        <time>2011-10-23T10:04:52Z</time>
      </trkpt>
      <trkpt lat="49.23799" lon="1.40105">
        <ele>7</ele>
        <time>2011-10-23T10:07:20Z</time>
      </trkpt>
    </trkseg>
  </trk>
</gpx>